<?xml version="1.0" encoding="UTF-8"?>
<gpx version="1.1" creator="2bulu-scraper" xmlns="http://www.topografix.com/GPX/1/1">
  <metadata><name>泸州叙永县木鸡公</name><desc>source: 2bulu.com trackId=86745375; exported 2026-09-01T14:56:38.058Z</desc>
    <bounds minlat="28.2096253" minlon="105.5318203" maxlat="28.235565" maxlon="105.5403543"/>
    <link href="https://www.2bulu.com/track/t-fsNIc6xrz%252Bvp%252FR2KBg5Tzw%253D%253D.htm"><text>2bulu 源页面</text></link>
  </metadata>
  <wpt lat="28.2309208" lon="105.5348511"><ele>1384</ele><name>
        </name></wpt>
  <wpt lat="28.2302902" lon="105.535758"><ele>1369</ele><name>
        </name></wpt>
  <wpt lat="28.225432" lon="105.5375631"><ele>1421</ele><name>
        </name></wpt>
  <wpt lat="28.224924" lon="105.5372962"><ele>1433</ele><name>
        </name></wpt>
  <wpt lat="28.2216647" lon="105.5391973"><ele>1480</ele><name>
        </name></wpt>
  <wpt lat="28.2208097" lon="105.5396576"><ele>1484</ele><name>
        </name></wpt>
  <wpt lat="28.2208097" lon="105.5396576"><ele>1484</ele><name>
        </name></wpt>
  <wpt lat="28.2207355" lon="105.5397202"><ele>1483</ele><name>
        </name></wpt>
  <wpt lat="28.2199364" lon="105.5399551"><ele>1536</ele><name>
        </name></wpt>
  <wpt lat="28.2169321" lon="105.5368689"><ele>1599</ele><name>
        </name></wpt>
  <wpt lat="28.2164469" lon="105.5368182"><ele>1595</ele><name>
        </name></wpt>
  <wpt lat="28.2164469" lon="105.5368182"><ele>1597</ele><name>
        </name></wpt>
  <wpt lat="28.2162986" lon="105.5366858"><ele>1597</ele><name>
        </name></wpt>
  <wpt lat="28.2153237" lon="105.5361024"><ele>1606</ele><name>
        </name></wpt>
  <wpt lat="28.2153435" lon="105.5360794"><ele>1670</ele><name>
        </name></wpt>
  <wpt lat="28.2153549" lon="105.5360794"><ele>1670</ele><name>
        </name></wpt>
  <wpt lat="28.2141935" lon="105.5355597"><ele>1647</ele><name>
        </name></wpt>
  <wpt lat="28.2141935" lon="105.5355597"><ele>1648</ele><name>
        </name></wpt>
  <wpt lat="28.2141107" lon="105.5354431"><ele>1648</ele><name>
        </name></wpt>
  <wpt lat="28.2141107" lon="105.5354431"><ele>1648</ele><name>
        </name></wpt>
  <wpt lat="28.2129416" lon="105.5318842"><ele>1724</ele><name>
        </name></wpt>
  <wpt lat="28.2127609" lon="105.5320129"><ele>1756</ele><name>
        </name></wpt>
  <wpt lat="28.2127533" lon="105.5320053"><ele>1756</ele><name>
        </name></wpt>
  <wpt lat="28.2127151" lon="105.5321045"><ele>1758</ele><name>观音岩最高点
        </name></wpt>
  <wpt lat="28.2127266" lon="105.5320816"><ele>1756</ele><name>
        </name></wpt>
  <wpt lat="28.212553" lon="105.5337219"><ele>1747</ele><name>
        </name></wpt>
  <wpt lat="28.2125473" lon="105.5337219"><ele>1747</ele><name>
        </name></wpt>
  <wpt lat="28.2127533" lon="105.5349579"><ele>1737</ele><name>
        </name></wpt>
  <wpt lat="28.2127495" lon="105.5349655"><ele>1737</ele><name>
        </name></wpt>
  <wpt lat="28.2127132" lon="105.5356369"><ele>1725</ele><name>
        </name></wpt>
  <wpt lat="28.2127151" lon="105.5356293"><ele>1725</ele><name>
        </name></wpt>
  <wpt lat="28.2128021" lon="105.5359961"><ele>1685</ele><name>
        </name></wpt>
  <wpt lat="28.2096615" lon="105.5398331"><ele>1782</ele><name>
        </name></wpt>
  <wpt lat="28.2096672" lon="105.5394592"><ele>1774</ele><name>
        </name></wpt>
  <wpt lat="28.2096634" lon="105.5394592"><ele>1774</ele><name>
        </name></wpt>
  <wpt lat="28.2096157" lon="105.5394592"><ele>1782</ele><name>木鸡公峰点
        </name></wpt>
  <wpt lat="28.2104416" lon="105.5389633"><ele>1756</ele><name>
        </name></wpt>
  <wpt lat="28.2104225" lon="105.5389862"><ele>1756</ele><name>
        </name></wpt>
  <wpt lat="28.2136359" lon="105.5365378"><ele>1653</ele><name>
        </name></wpt>
  <wpt lat="28.2149854" lon="105.535862"><ele>1628</ele><name>
        </name></wpt>
  <wpt lat="28.2163895" lon="105.5367306"><ele>1601</ele><name>
        </name></wpt>
  <wpt lat="28.2203789" lon="105.5400314"><ele>1531</ele><name>
        </name></wpt>
  <wpt lat="28.2203808" lon="105.5400391"><ele>1531</ele><name>
        </name></wpt>
  <wpt lat="28.2203674" lon="105.5400238"><ele>1531</ele><name>
        </name></wpt>
  <wpt lat="28.2314729" lon="105.5345357"><ele>1321</ele><name>
        </name></wpt>
  <wpt lat="28.2345883" lon="105.5335815"><ele>1315</ele><name>
        </name></wpt>
  <wpt lat="28.2353174" lon="105.5332901"><ele>1315</ele><name>
        </name></wpt>
  <wpt lat="28.2449875" lon="105.5401154"><ele>1094</ele><name>
        </name></wpt>
  <wpt lat="28.2449875" lon="105.5401154"><ele>1094</ele><name>
        </name></wpt>
  <wpt lat="28.2449875" lon="105.5401154"><ele>1094</ele><name>
        </name></wpt>
  <trk><name>泸州叙永县木鸡公</name>
      <trkseg>
        <trkpt lat="28.2309055" lon="105.5348432"><ele>1314.22</ele><time>2026-07-04T17:40:12.000Z</time></trkpt>
        <trkpt lat="28.2310009" lon="105.5348275"><ele>1314.22</ele><time>2026-07-04T17:40:55.000Z</time></trkpt>
        <trkpt lat="28.231072" lon="105.5348901"><ele>1314.61</ele><time>2026-07-04T17:41:19.000Z</time></trkpt>
        <trkpt lat="28.231134" lon="105.5349933"><ele>1316.57</ele><time>2026-07-04T17:42:27.000Z</time></trkpt>
        <trkpt lat="28.2311491" lon="105.5350992"><ele>1320.35</ele><time>2026-07-04T17:42:51.000Z</time></trkpt>
        <trkpt lat="28.2311758" lon="105.5352081"><ele>1325.79</ele><time>2026-07-04T17:43:25.000Z</time></trkpt>
        <trkpt lat="28.2311565" lon="105.5353078"><ele>1331.93</ele><time>2026-07-04T17:44:05.000Z</time></trkpt>
        <trkpt lat="28.231152" lon="105.5354172"><ele>1336.78</ele><time>2026-07-04T17:44:25.000Z</time></trkpt>
        <trkpt lat="28.2311459" lon="105.535487"><ele>1339.79</ele><time>2026-07-04T17:44:29.000Z</time></trkpt>
        <trkpt lat="28.2311322" lon="105.5355763"><ele>1342.43</ele><time>2026-07-04T17:44:40.000Z</time></trkpt>
        <trkpt lat="28.2310726" lon="105.5356572"><ele>1344.98</ele><time>2026-07-04T17:44:51.000Z</time></trkpt>
        <trkpt lat="28.2309881" lon="105.5357318"><ele>1344.66</ele><time>2026-07-04T17:45:01.000Z</time></trkpt>
        <trkpt lat="28.2308916" lon="105.5357632"><ele>1347.37</ele><time>2026-07-04T17:45:15.000Z</time></trkpt>
        <trkpt lat="28.2307918" lon="105.5357669"><ele>1351.44</ele><time>2026-07-04T17:45:29.000Z</time></trkpt>
        <trkpt lat="28.2306949" lon="105.5357685"><ele>1353.1</ele><time>2026-07-04T17:45:51.000Z</time></trkpt>
        <trkpt lat="28.2306624" lon="105.5357686"><ele>1356.61</ele><time>2026-07-04T17:45:55.000Z</time></trkpt>
        <trkpt lat="28.2305828" lon="105.5357361"><ele>1358.59</ele><time>2026-07-04T17:49:19.000Z</time></trkpt>
        <trkpt lat="28.2304908" lon="105.5357102"><ele>1360.52</ele><time>2026-07-04T17:49:33.000Z</time></trkpt>
        <trkpt lat="28.2304369" lon="105.535671"><ele>1361.56</ele><time>2026-07-04T17:49:47.000Z</time></trkpt>
        <trkpt lat="28.2303718" lon="105.5357168"><ele>1362.9</ele><time>2026-07-04T17:50:38.000Z</time></trkpt>
        <trkpt lat="28.2302902" lon="105.535758"><ele>1363.55</ele><time>2026-07-04T17:50:56.000Z</time></trkpt>
        <trkpt lat="28.2301991" lon="105.5357714"><ele>1366.14</ele><time>2026-07-04T17:51:28.000Z</time></trkpt>
        <trkpt lat="28.2301097" lon="105.5357476"><ele>1367.46</ele><time>2026-07-04T17:51:38.000Z</time></trkpt>
        <trkpt lat="28.2300138" lon="105.5357505"><ele>1367.68</ele><time>2026-07-04T17:51:50.000Z</time></trkpt>
        <trkpt lat="28.229919" lon="105.5357542"><ele>1367.99</ele><time>2026-07-04T17:52:02.000Z</time></trkpt>
        <trkpt lat="28.2298232" lon="105.5357543"><ele>1367.76</ele><time>2026-07-04T17:52:16.000Z</time></trkpt>
        <trkpt lat="28.2297222" lon="105.5357689"><ele>1368.27</ele><time>2026-07-04T17:52:38.000Z</time></trkpt>
        <trkpt lat="28.2296252" lon="105.5357578"><ele>1368.02</ele><time>2026-07-04T17:52:53.000Z</time></trkpt>
        <trkpt lat="28.2295336" lon="105.5357699"><ele>1369.09</ele><time>2026-07-04T17:53:04.000Z</time></trkpt>
        <trkpt lat="28.2294407" lon="105.5357974"><ele>1371.5</ele><time>2026-07-04T17:53:16.000Z</time></trkpt>
        <trkpt lat="28.2293497" lon="105.5358112"><ele>1372.71</ele><time>2026-07-04T17:53:26.000Z</time></trkpt>
        <trkpt lat="28.2292565" lon="105.5358048"><ele>1374.02</ele><time>2026-07-04T17:53:40.000Z</time></trkpt>
        <trkpt lat="28.2291555" lon="105.5358293"><ele>1374.28</ele><time>2026-07-04T17:53:52.000Z</time></trkpt>
        <trkpt lat="28.2290695" lon="105.5358008"><ele>1374.6</ele><time>2026-07-04T17:54:10.000Z</time></trkpt>
        <trkpt lat="28.2289787" lon="105.5358104"><ele>1376.57</ele><time>2026-07-04T17:54:22.000Z</time></trkpt>
        <trkpt lat="28.2288872" lon="105.5358487"><ele>1377.61</ele><time>2026-07-04T17:54:38.000Z</time></trkpt>
        <trkpt lat="28.2287919" lon="105.5358442"><ele>1379.31</ele><time>2026-07-04T17:54:52.000Z</time></trkpt>
        <trkpt lat="28.228694" lon="105.5358625"><ele>1381.43</ele><time>2026-07-04T17:55:04.000Z</time></trkpt>
        <trkpt lat="28.2285999" lon="105.5358934"><ele>1382.78</ele><time>2026-07-04T17:55:18.000Z</time></trkpt>
        <trkpt lat="28.2285066" lon="105.5359184"><ele>1384.49</ele><time>2026-07-04T17:55:38.000Z</time></trkpt>
        <trkpt lat="28.2284132" lon="105.5359579"><ele>1387.48</ele><time>2026-07-04T17:55:54.000Z</time></trkpt>
        <trkpt lat="28.2283453" lon="105.5360354"><ele>1389.83</ele><time>2026-07-04T17:56:06.000Z</time></trkpt>
        <trkpt lat="28.2282652" lon="105.5360969"><ele>1390.59</ele><time>2026-07-04T17:56:16.000Z</time></trkpt>
        <trkpt lat="28.2281821" lon="105.5361536"><ele>1391.17</ele><time>2026-07-04T17:56:27.000Z</time></trkpt>
        <trkpt lat="28.22811" lon="105.5362306"><ele>1391.69</ele><time>2026-07-04T17:56:41.000Z</time></trkpt>
        <trkpt lat="28.2280283" lon="105.5363012"><ele>1391.98</ele><time>2026-07-04T17:56:53.000Z</time></trkpt>
        <trkpt lat="28.2279356" lon="105.5363471"><ele>1391.94</ele><time>2026-07-04T17:57:03.000Z</time></trkpt>
        <trkpt lat="28.2278308" lon="105.5363659"><ele>1390.76</ele><time>2026-07-04T17:57:15.000Z</time></trkpt>
        <trkpt lat="28.2277242" lon="105.5363825"><ele>1390.99</ele><time>2026-07-04T17:57:27.000Z</time></trkpt>
        <trkpt lat="28.2276244" lon="105.5364171"><ele>1390.83</ele><time>2026-07-04T17:57:39.000Z</time></trkpt>
        <trkpt lat="28.2275301" lon="105.5364504"><ele>1391.44</ele><time>2026-07-04T17:57:51.000Z</time></trkpt>
        <trkpt lat="28.2274523" lon="105.5365202"><ele>1392.43</ele><time>2026-07-04T17:58:07.000Z</time></trkpt>
        <trkpt lat="28.2273795" lon="105.5365928"><ele>1394.27</ele><time>2026-07-04T17:58:19.000Z</time></trkpt>
        <trkpt lat="28.2273126" lon="105.5366693"><ele>1395.25</ele><time>2026-07-04T17:58:31.000Z</time></trkpt>
        <trkpt lat="28.2272455" lon="105.5367438"><ele>1396.66</ele><time>2026-07-04T17:58:43.000Z</time></trkpt>
        <trkpt lat="28.2272298" lon="105.5368428"><ele>1397.66</ele><time>2026-07-04T17:58:55.000Z</time></trkpt>
        <trkpt lat="28.2272937" lon="105.5369201"><ele>1398.07</ele><time>2026-07-04T17:59:06.000Z</time></trkpt>
        <trkpt lat="28.2273532" lon="105.5370222"><ele>1396.64</ele><time>2026-07-04T17:59:19.000Z</time></trkpt>
        <trkpt lat="28.2273556" lon="105.5371251"><ele>1396.62</ele><time>2026-07-04T17:59:31.000Z</time></trkpt>
        <trkpt lat="28.2273203" lon="105.5372252"><ele>1397.34</ele><time>2026-07-04T17:59:45.000Z</time></trkpt>
        <trkpt lat="28.2272445" lon="105.5373064"><ele>1397.83</ele><time>2026-07-04T18:00:03.000Z</time></trkpt>
        <trkpt lat="28.2271515" lon="105.5373518"><ele>1397.83</ele><time>2026-07-04T18:00:15.000Z</time></trkpt>
        <trkpt lat="28.2270448" lon="105.5373449"><ele>1398.37</ele><time>2026-07-04T18:00:29.000Z</time></trkpt>
        <trkpt lat="28.2269525" lon="105.5373002"><ele>1399.82</ele><time>2026-07-04T18:00:43.000Z</time></trkpt>
        <trkpt lat="28.2268577" lon="105.5372617"><ele>1401.16</ele><time>2026-07-04T18:00:57.000Z</time></trkpt>
        <trkpt lat="28.2267628" lon="105.5372595"><ele>1402.08</ele><time>2026-07-04T18:01:09.000Z</time></trkpt>
        <trkpt lat="28.226671" lon="105.5372754"><ele>1402.98</ele><time>2026-07-04T18:01:21.000Z</time></trkpt>
        <trkpt lat="28.2265831" lon="105.5373203"><ele>1403.47</ele><time>2026-07-04T18:01:35.000Z</time></trkpt>
        <trkpt lat="28.2265438" lon="105.5374198"><ele>1403.44</ele><time>2026-07-04T18:01:49.000Z</time></trkpt>
        <trkpt lat="28.2265263" lon="105.5374838"><ele>1405.95</ele><time>2026-07-04T18:01:57.000Z</time></trkpt>
        <trkpt lat="28.226497" lon="105.5375722"><ele>1407.57</ele><time>2026-07-04T18:02:17.000Z</time></trkpt>
        <trkpt lat="28.2264431" lon="105.5376627"><ele>1408.09</ele><time>2026-07-04T18:02:31.000Z</time></trkpt>
        <trkpt lat="28.2263535" lon="105.5376789"><ele>1408.06</ele><time>2026-07-04T18:02:44.000Z</time></trkpt>
        <trkpt lat="28.2262575" lon="105.5376422"><ele>1408.02</ele><time>2026-07-04T18:02:56.000Z</time></trkpt>
        <trkpt lat="28.2261589" lon="105.5376035"><ele>1408.91</ele><time>2026-07-04T18:03:08.000Z</time></trkpt>
        <trkpt lat="28.2260419" lon="105.5375621"><ele>1410.92</ele><time>2026-07-04T18:03:24.000Z</time></trkpt>
        <trkpt lat="28.2259474" lon="105.5376438"><ele>1413.19</ele><time>2026-07-04T18:03:46.000Z</time></trkpt>
        <trkpt lat="28.2258836" lon="105.5376779"><ele>1413.77</ele><time>2026-07-04T18:04:04.000Z</time></trkpt>
        <trkpt lat="28.2257979" lon="105.537677"><ele>1414.07</ele><time>2026-07-04T18:04:22.000Z</time></trkpt>
        <trkpt lat="28.2256981" lon="105.5376785"><ele>1416.28</ele><time>2026-07-04T18:04:40.000Z</time></trkpt>
        <trkpt lat="28.2256646" lon="105.5376761"><ele>1417.99</ele><time>2026-07-04T18:04:42.000Z</time></trkpt>
        <trkpt lat="28.2256094" lon="105.5376223"><ele>1419</ele><time>2026-07-04T18:05:02.000Z</time></trkpt>
        <trkpt lat="28.225525" lon="105.5375853"><ele>1419.95</ele><time>2026-07-04T18:05:22.000Z</time></trkpt>
        <trkpt lat="28.225432" lon="105.5375631"><ele>1420.59</ele><time>2026-07-04T18:05:40.000Z</time></trkpt>
        <trkpt lat="28.2253439" lon="105.5375291"><ele>1421.07</ele><time>2026-07-04T18:05:54.000Z</time></trkpt>
        <trkpt lat="28.2252564" lon="105.5374886"><ele>1422.8</ele><time>2026-07-04T18:06:10.000Z</time></trkpt>
        <trkpt lat="28.225169" lon="105.5374473"><ele>1424.5</ele><time>2026-07-04T18:06:26.000Z</time></trkpt>
        <trkpt lat="28.2250956" lon="105.5373829"><ele>1426.23</ele><time>2026-07-04T18:06:48.000Z</time></trkpt>
        <trkpt lat="28.225011" lon="105.5373327"><ele>1428.44</ele><time>2026-07-04T18:07:02.000Z</time></trkpt>
        <trkpt lat="28.224924" lon="105.5372962"><ele>1430.41</ele><time>2026-07-04T18:07:20.000Z</time></trkpt>
        <trkpt lat="28.2248586" lon="105.5372222"><ele>1431.86</ele><time>2026-07-04T18:07:36.000Z</time></trkpt>
        <trkpt lat="28.2247712" lon="105.537178"><ele>1433.2</ele><time>2026-07-04T18:07:56.000Z</time></trkpt>
        <trkpt lat="28.2246807" lon="105.5371829"><ele>1435.33</ele><time>2026-07-04T18:08:14.000Z</time></trkpt>
        <trkpt lat="28.2245914" lon="105.5372092"><ele>1437</ele><time>2026-07-04T18:08:28.000Z</time></trkpt>
        <trkpt lat="28.2244996" lon="105.5372355"><ele>1439.15</ele><time>2026-07-04T18:08:42.000Z</time></trkpt>
        <trkpt lat="28.2244107" lon="105.5372772"><ele>1440.64</ele><time>2026-07-04T18:09:00.000Z</time></trkpt>
        <trkpt lat="28.2243198" lon="105.5373187"><ele>1442.59</ele><time>2026-07-04T18:09:16.000Z</time></trkpt>
        <trkpt lat="28.2242293" lon="105.5373531"><ele>1444.31</ele><time>2026-07-04T18:09:32.000Z</time></trkpt>
        <trkpt lat="28.224133" lon="105.537382"><ele>1446.37</ele><time>2026-07-04T18:09:48.000Z</time></trkpt>
        <trkpt lat="28.2240336" lon="105.5374077"><ele>1448.11</ele><time>2026-07-04T18:10:06.000Z</time></trkpt>
        <trkpt lat="28.2239343" lon="105.5374369"><ele>1449.67</ele><time>2026-07-04T18:10:20.000Z</time></trkpt>
        <trkpt lat="28.2238286" lon="105.5374628"><ele>1450.78</ele><time>2026-07-04T18:10:36.000Z</time></trkpt>
        <trkpt lat="28.223734" lon="105.537482"><ele>1453.02</ele><time>2026-07-04T18:10:51.000Z</time></trkpt>
        <trkpt lat="28.2236454" lon="105.537522"><ele>1455.14</ele><time>2026-07-04T18:11:06.000Z</time></trkpt>
        <trkpt lat="28.2235558" lon="105.5375645"><ele>1457.93</ele><time>2026-07-04T18:11:22.000Z</time></trkpt>
        <trkpt lat="28.2234747" lon="105.5376224"><ele>1460.25</ele><time>2026-07-04T18:11:36.000Z</time></trkpt>
        <trkpt lat="28.2234068" lon="105.5376962"><ele>1461.78</ele><time>2026-07-04T18:11:52.000Z</time></trkpt>
        <trkpt lat="28.223344" lon="105.5377865"><ele>1462.83</ele><time>2026-07-04T18:12:04.000Z</time></trkpt>
        <trkpt lat="28.2232784" lon="105.5378734"><ele>1463.97</ele><time>2026-07-04T18:12:18.000Z</time></trkpt>
        <trkpt lat="28.2232119" lon="105.5379513"><ele>1464.5</ele><time>2026-07-04T18:12:29.000Z</time></trkpt>
        <trkpt lat="28.2231296" lon="105.5380087"><ele>1465.52</ele><time>2026-07-04T18:12:41.000Z</time></trkpt>
        <trkpt lat="28.2230364" lon="105.5380436"><ele>1466.94</ele><time>2026-07-04T18:12:51.000Z</time></trkpt>
        <trkpt lat="28.2229509" lon="105.5380894"><ele>1468.45</ele><time>2026-07-04T18:13:03.000Z</time></trkpt>
        <trkpt lat="28.2228618" lon="105.538122"><ele>1469.14</ele><time>2026-07-04T18:13:15.000Z</time></trkpt>
        <trkpt lat="28.2227754" lon="105.5381655"><ele>1469.25</ele><time>2026-07-04T18:13:25.000Z</time></trkpt>
        <trkpt lat="28.2226955" lon="105.5382179"><ele>1470.4</ele><time>2026-07-04T18:13:39.000Z</time></trkpt>
        <trkpt lat="28.2226086" lon="105.5382755"><ele>1469.78</ele><time>2026-07-04T18:13:51.000Z</time></trkpt>
        <trkpt lat="28.2225215" lon="105.5383175"><ele>1470.49</ele><time>2026-07-04T18:14:03.000Z</time></trkpt>
        <trkpt lat="28.2224286" lon="105.5383647"><ele>1471.41</ele><time>2026-07-04T18:14:17.000Z</time></trkpt>
        <trkpt lat="28.2223414" lon="105.538425"><ele>1472.02</ele><time>2026-07-04T18:14:31.000Z</time></trkpt>
        <trkpt lat="28.2222563" lon="105.5384869"><ele>1472.87</ele><time>2026-07-04T18:14:43.000Z</time></trkpt>
        <trkpt lat="28.222167" lon="105.5385418"><ele>1473.26</ele><time>2026-07-04T18:14:55.000Z</time></trkpt>
        <trkpt lat="28.2220803" lon="105.5386104"><ele>1473.96</ele><time>2026-07-04T18:15:07.000Z</time></trkpt>
        <trkpt lat="28.2220024" lon="105.5386751"><ele>1474.12</ele><time>2026-07-04T18:15:17.000Z</time></trkpt>
        <trkpt lat="28.2219262" lon="105.5387479"><ele>1474.73</ele><time>2026-07-04T18:15:31.000Z</time></trkpt>
        <trkpt lat="28.221869" lon="105.538833"><ele>1475.35</ele><time>2026-07-04T18:15:43.000Z</time></trkpt>
        <trkpt lat="28.2218247" lon="105.5389298"><ele>1474.82</ele><time>2026-07-04T18:15:55.000Z</time></trkpt>
        <trkpt lat="28.2218019" lon="105.5390438"><ele>1475.33</ele><time>2026-07-04T18:16:07.000Z</time></trkpt>
        <trkpt lat="28.2217462" lon="105.5391352"><ele>1475.88</ele><time>2026-07-04T18:16:19.000Z</time></trkpt>
        <trkpt lat="28.2216647" lon="105.5391973"><ele>1476.9</ele><time>2026-07-04T18:16:31.000Z</time></trkpt>
        <trkpt lat="28.2215706" lon="105.5392214"><ele>1478.16</ele><time>2026-07-04T18:17:05.000Z</time></trkpt>
        <trkpt lat="28.2214737" lon="105.5392363"><ele>1478.1</ele><time>2026-07-04T18:17:17.000Z</time></trkpt>
        <trkpt lat="28.2213813" lon="105.539264"><ele>1478.5</ele><time>2026-07-04T18:17:33.000Z</time></trkpt>
        <trkpt lat="28.2212991" lon="105.5393197"><ele>1477.4</ele><time>2026-07-04T18:17:56.000Z</time></trkpt>
        <trkpt lat="28.2212262" lon="105.5393959"><ele>1477.87</ele><time>2026-07-04T18:18:11.000Z</time></trkpt>
        <trkpt lat="28.2211422" lon="105.5394574"><ele>1478.88</ele><time>2026-07-04T18:18:29.000Z</time></trkpt>
        <trkpt lat="28.2210436" lon="105.5394918"><ele>1479.47</ele><time>2026-07-04T18:18:51.000Z</time></trkpt>
        <trkpt lat="28.2209511" lon="105.5395289"><ele>1481.04</ele><time>2026-07-04T18:19:05.000Z</time></trkpt>
        <trkpt lat="28.2208851" lon="105.5395973"><ele>1482.58</ele><time>2026-07-04T18:19:21.000Z</time></trkpt>
        <trkpt lat="28.2208097" lon="105.5396576"><ele>1483.56</ele><time>2026-07-04T18:19:37.000Z</time></trkpt>
        <trkpt lat="28.2207355" lon="105.5397202"><ele>1483.8</ele><time>2026-07-04T18:20:21.000Z</time></trkpt>
        <trkpt lat="28.220672" lon="105.5397952"><ele>1483.15</ele><time>2026-07-04T18:20:37.000Z</time></trkpt>
        <trkpt lat="28.2206177" lon="105.5398865"><ele>1482.71</ele><time>2026-07-04T18:20:53.000Z</time></trkpt>
        <trkpt lat="28.220538" lon="105.5399184"><ele>1482.19</ele><time>2026-07-04T18:21:18.000Z</time></trkpt>
        <trkpt lat="28.2204503" lon="105.5399561"><ele>1481.87</ele><time>2026-07-04T18:22:12.000Z</time></trkpt>
        <trkpt lat="28.220387" lon="105.5400256"><ele>1482</ele><time>2026-07-04T18:22:34.000Z</time></trkpt>
        <trkpt lat="28.2203268" lon="105.5401031"><ele>1482.54</ele><time>2026-07-04T18:22:56.000Z</time></trkpt>
        <trkpt lat="28.2202662" lon="105.5401875"><ele>1482.64</ele><time>2026-07-04T18:24:22.000Z</time></trkpt>
        <trkpt lat="28.2202663" lon="105.5401866"><ele>1483.53</ele><time>2026-07-04T18:24:24.000Z</time></trkpt>
        <trkpt lat="28.2202609" lon="105.5402897"><ele>1483.99</ele><time>2026-07-04T18:26:58.000Z</time></trkpt>
        <trkpt lat="28.2201863" lon="105.5403543"><ele>1483.83</ele><time>2026-07-04T18:28:00.000Z</time></trkpt>
        <trkpt lat="28.2200956" lon="105.5403301"><ele>1483.75</ele><time>2026-07-04T18:28:40.000Z</time></trkpt>
        <trkpt lat="28.2200207" lon="105.5402668"><ele>1482.29</ele><time>2026-07-04T18:29:43.000Z</time></trkpt>
        <trkpt lat="28.2200336" lon="105.5402433"><ele>1484.96</ele><time>2026-07-04T18:29:49.000Z</time></trkpt>
        <trkpt lat="28.2200249" lon="105.540146"><ele>1486.97</ele><time>2026-07-04T18:30:35.000Z</time></trkpt>
        <trkpt lat="28.2199571" lon="105.5400832"><ele>1490.75</ele><time>2026-07-04T18:30:51.000Z</time></trkpt>
        <trkpt lat="28.2199214" lon="105.5399888"><ele>1491.44</ele><time>2026-07-04T18:31:07.000Z</time></trkpt>
        <trkpt lat="28.2198957" lon="105.5398794"><ele>1494.17</ele><time>2026-07-04T18:37:06.000Z</time></trkpt>
        <trkpt lat="28.2197957" lon="105.5398536"><ele>1496.12</ele><time>2026-07-04T18:37:20.000Z</time></trkpt>
        <trkpt lat="28.2197733" lon="105.5398167"><ele>1497.81</ele><time>2026-07-04T18:37:26.000Z</time></trkpt>
        <trkpt lat="28.2197389" lon="105.5397365"><ele>1499.07</ele><time>2026-07-04T18:37:40.000Z</time></trkpt>
        <trkpt lat="28.2196606" lon="105.5397111"><ele>1501.81</ele><time>2026-07-04T18:37:58.000Z</time></trkpt>
        <trkpt lat="28.2195946" lon="105.5396394"><ele>1504.57</ele><time>2026-07-04T18:38:16.000Z</time></trkpt>
        <trkpt lat="28.2195485" lon="105.5395452"><ele>1505.56</ele><time>2026-07-04T18:38:28.000Z</time></trkpt>
        <trkpt lat="28.2194727" lon="105.5394824"><ele>1508.3</ele><time>2026-07-04T18:38:50.000Z</time></trkpt>
        <trkpt lat="28.219402" lon="105.5394159"><ele>1510.32</ele><time>2026-07-04T18:39:10.000Z</time></trkpt>
        <trkpt lat="28.2193527" lon="105.5393313"><ele>1512.51</ele><time>2026-07-04T18:39:30.000Z</time></trkpt>
        <trkpt lat="28.2192845" lon="105.5392507"><ele>1514.28</ele><time>2026-07-04T18:39:54.000Z</time></trkpt>
        <trkpt lat="28.2192136" lon="105.5391776"><ele>1516.69</ele><time>2026-07-04T18:40:13.000Z</time></trkpt>
        <trkpt lat="28.2191888" lon="105.5391309"><ele>1519.98</ele><time>2026-07-04T18:40:27.000Z</time></trkpt>
        <trkpt lat="28.2191364" lon="105.539066"><ele>1523.06</ele><time>2026-07-04T18:40:45.000Z</time></trkpt>
        <trkpt lat="28.2191044" lon="105.5389749"><ele>1525.72</ele><time>2026-07-04T18:41:05.000Z</time></trkpt>
        <trkpt lat="28.2190596" lon="105.5388785"><ele>1527.57</ele><time>2026-07-04T18:41:25.000Z</time></trkpt>
        <trkpt lat="28.2190299" lon="105.5388519"><ele>1530.13</ele><time>2026-07-04T18:41:31.000Z</time></trkpt>
        <trkpt lat="28.2189563" lon="105.538857"><ele>1531.77</ele><time>2026-07-04T18:41:47.000Z</time></trkpt>
        <trkpt lat="28.2189307" lon="105.5388676"><ele>1532.83</ele><time>2026-07-04T18:41:51.000Z</time></trkpt>
        <trkpt lat="28.2188628" lon="105.5389079"><ele>1533.81</ele><time>2026-07-04T18:42:03.000Z</time></trkpt>
        <trkpt lat="28.2187741" lon="105.5389187"><ele>1534.98</ele><time>2026-07-04T18:42:25.000Z</time></trkpt>
        <trkpt lat="28.218727" lon="105.538914"><ele>1536.97</ele><time>2026-07-04T18:42:37.000Z</time></trkpt>
        <trkpt lat="28.2186642" lon="105.5388375"><ele>1537.9</ele><time>2026-07-04T18:42:55.000Z</time></trkpt>
        <trkpt lat="28.2186336" lon="105.5387825"><ele>1539.37</ele><time>2026-07-04T18:43:11.000Z</time></trkpt>
        <trkpt lat="28.2185957" lon="105.5386963"><ele>1539.89</ele><time>2026-07-04T18:43:29.000Z</time></trkpt>
        <trkpt lat="28.2185375" lon="105.5386166"><ele>1542.47</ele><time>2026-07-04T18:43:45.000Z</time></trkpt>
        <trkpt lat="28.2185232" lon="105.5385141"><ele>1543.95</ele><time>2026-07-04T18:43:57.000Z</time></trkpt>
        <trkpt lat="28.2185148" lon="105.5384059"><ele>1543.93</ele><time>2026-07-04T18:44:11.000Z</time></trkpt>
        <trkpt lat="28.2184709" lon="105.5383073"><ele>1544.07</ele><time>2026-07-04T18:44:31.000Z</time></trkpt>
        <trkpt lat="28.2183988" lon="105.5382413"><ele>1544.52</ele><time>2026-07-04T18:44:47.000Z</time></trkpt>
        <trkpt lat="28.2183611" lon="105.538144"><ele>1547.7</ele><time>2026-07-04T18:45:03.000Z</time></trkpt>
        <trkpt lat="28.2183326" lon="105.5380561"><ele>1549.44</ele><time>2026-07-04T18:45:23.000Z</time></trkpt>
        <trkpt lat="28.2183105" lon="105.5379601"><ele>1549.54</ele><time>2026-07-04T18:45:49.000Z</time></trkpt>
        <trkpt lat="28.2182482" lon="105.5378912"><ele>1551.65</ele><time>2026-07-04T18:46:09.000Z</time></trkpt>
        <trkpt lat="28.2181689" lon="105.5378399"><ele>1552.39</ele><time>2026-07-04T18:46:33.000Z</time></trkpt>
        <trkpt lat="28.2180973" lon="105.5377676"><ele>1555.56</ele><time>2026-07-04T18:46:59.000Z</time></trkpt>
        <trkpt lat="28.2180274" lon="105.5376974"><ele>1559.27</ele><time>2026-07-04T18:47:18.000Z</time></trkpt>
        <trkpt lat="28.2179445" lon="105.5376522"><ele>1561.8</ele><time>2026-07-04T18:47:40.000Z</time></trkpt>
        <trkpt lat="28.2178722" lon="105.5375898"><ele>1564.82</ele><time>2026-07-04T18:48:02.000Z</time></trkpt>
        <trkpt lat="28.2178057" lon="105.5375107"><ele>1569.41</ele><time>2026-07-04T18:48:22.000Z</time></trkpt>
        <trkpt lat="28.2177332" lon="105.5374403"><ele>1569.76</ele><time>2026-07-04T18:48:42.000Z</time></trkpt>
        <trkpt lat="28.21772" lon="105.537426"><ele>1571.53</ele><time>2026-07-04T18:48:44.000Z</time></trkpt>
        <trkpt lat="28.2176928" lon="105.5373594"><ele>1571.69</ele><time>2026-07-04T18:49:14.000Z</time></trkpt>
        <trkpt lat="28.217612" lon="105.537303"><ele>1573.42</ele><time>2026-07-04T18:51:34.000Z</time></trkpt>
        <trkpt lat="28.2175583" lon="105.5372123"><ele>1574.77</ele><time>2026-07-04T18:51:52.000Z</time></trkpt>
        <trkpt lat="28.2175136" lon="105.537203"><ele>1577.66</ele><time>2026-07-04T18:51:58.000Z</time></trkpt>
        <trkpt lat="28.2174597" lon="105.537137"><ele>1578.75</ele><time>2026-07-04T18:52:22.000Z</time></trkpt>
        <trkpt lat="28.2174028" lon="105.5370556"><ele>1582.16</ele><time>2026-07-04T18:52:38.000Z</time></trkpt>
        <trkpt lat="28.2173725" lon="105.5370173"><ele>1585.56</ele><time>2026-07-04T18:52:46.000Z</time></trkpt>
        <trkpt lat="28.2173001" lon="105.5369831"><ele>1587.83</ele><time>2026-07-04T18:53:02.000Z</time></trkpt>
        <trkpt lat="28.2172063" lon="105.5369957"><ele>1590.34</ele><time>2026-07-04T18:53:24.000Z</time></trkpt>
        <trkpt lat="28.2171097" lon="105.5369792"><ele>1593.59</ele><time>2026-07-04T18:53:40.000Z</time></trkpt>
        <trkpt lat="28.2170171" lon="105.5369259"><ele>1596.22</ele><time>2026-07-04T18:53:54.000Z</time></trkpt>
        <trkpt lat="28.2169321" lon="105.5368689"><ele>1597.56</ele><time>2026-07-04T18:54:17.000Z</time></trkpt>
        <trkpt lat="28.2168409" lon="105.536829"><ele>1598.07</ele><time>2026-07-04T18:54:29.000Z</time></trkpt>
        <trkpt lat="28.2167396" lon="105.5368338"><ele>1598.78</ele><time>2026-07-04T18:54:45.000Z</time></trkpt>
        <trkpt lat="28.216641" lon="105.5368224"><ele>1598.71</ele><time>2026-07-04T18:54:57.000Z</time></trkpt>
        <trkpt lat="28.2165425" lon="105.5368322"><ele>1599.92</ele><time>2026-07-04T18:55:19.000Z</time></trkpt>
        <trkpt lat="28.2164469" lon="105.5368182"><ele>1598.34</ele><time>2026-07-04T18:55:31.000Z</time></trkpt>
        <trkpt lat="28.2163769" lon="105.5367486"><ele>1597.44</ele><time>2026-07-04T18:55:53.000Z</time></trkpt>
        <trkpt lat="28.2162986" lon="105.5366858"><ele>1597.22</ele><time>2026-07-04T18:56:07.000Z</time></trkpt>
        <trkpt lat="28.2162327" lon="105.5366108"><ele>1597.42</ele><time>2026-07-04T18:56:27.000Z</time></trkpt>
        <trkpt lat="28.2161553" lon="105.5365499"><ele>1597.47</ele><time>2026-07-04T18:56:41.000Z</time></trkpt>
        <trkpt lat="28.2160646" lon="105.5365181"><ele>1598.72</ele><time>2026-07-04T18:57:01.000Z</time></trkpt>
        <trkpt lat="28.2159746" lon="105.5364818"><ele>1601.46</ele><time>2026-07-04T18:57:17.000Z</time></trkpt>
        <trkpt lat="28.2158852" lon="105.536444"><ele>1603.69</ele><time>2026-07-04T18:57:39.000Z</time></trkpt>
        <trkpt lat="28.2158022" lon="105.5363958"><ele>1603.81</ele><time>2026-07-04T18:57:59.000Z</time></trkpt>
        <trkpt lat="28.2157111" lon="105.5363323"><ele>1604.25</ele><time>2026-07-04T18:58:19.000Z</time></trkpt>
        <trkpt lat="28.2156232" lon="105.5362771"><ele>1605.36</ele><time>2026-07-04T18:58:33.000Z</time></trkpt>
        <trkpt lat="28.2155491" lon="105.5362141"><ele>1606.94</ele><time>2026-07-04T18:58:49.000Z</time></trkpt>
        <trkpt lat="28.2154746" lon="105.536155"><ele>1608.01</ele><time>2026-07-04T18:59:11.000Z</time></trkpt>
        <trkpt lat="28.2153818" lon="105.5361329"><ele>1608.21</ele><time>2026-07-04T18:59:27.000Z</time></trkpt>
        <trkpt lat="28.2153237" lon="105.5361024"><ele>1606.97</ele><time>2026-07-04T18:59:33.000Z</time></trkpt>
        <trkpt lat="28.2153065" lon="105.5360065"><ele>1606.52</ele><time>2026-07-04T19:05:40.000Z</time></trkpt>
        <trkpt lat="28.2152586" lon="105.5359098"><ele>1607.99</ele><time>2026-07-04T19:06:03.000Z</time></trkpt>
        <trkpt lat="28.2151826" lon="105.5359012"><ele>1609.13</ele><time>2026-07-04T19:06:23.000Z</time></trkpt>
        <trkpt lat="28.2151119" lon="105.5358432"><ele>1610.81</ele><time>2026-07-04T19:06:41.000Z</time></trkpt>
        <trkpt lat="28.2150233" lon="105.535805"><ele>1612.5</ele><time>2026-07-04T19:07:05.000Z</time></trkpt>
        <trkpt lat="28.214977" lon="105.5358106"><ele>1614.93</ele><time>2026-07-04T19:07:17.000Z</time></trkpt>
        <trkpt lat="28.214906" lon="105.5358521"><ele>1616.04</ele><time>2026-07-04T19:07:41.000Z</time></trkpt>
        <trkpt lat="28.214823" lon="105.5358358"><ele>1618.37</ele><time>2026-07-04T19:07:59.000Z</time></trkpt>
        <trkpt lat="28.2147567" lon="105.5357681"><ele>1619.64</ele><time>2026-07-04T19:08:35.000Z</time></trkpt>
        <trkpt lat="28.2146697" lon="105.5357457"><ele>1621.38</ele><time>2026-07-04T19:09:23.000Z</time></trkpt>
        <trkpt lat="28.2145966" lon="105.5356893"><ele>1625.83</ele><time>2026-07-04T19:09:41.000Z</time></trkpt>
        <trkpt lat="28.2145147" lon="105.5356363"><ele>1627.84</ele><time>2026-07-04T19:10:13.000Z</time></trkpt>
        <trkpt lat="28.2144266" lon="105.535594"><ele>1631.52</ele><time>2026-07-04T19:10:41.000Z</time></trkpt>
        <trkpt lat="28.2143467" lon="105.5356299"><ele>1634.31</ele><time>2026-07-04T19:11:12.000Z</time></trkpt>
        <trkpt lat="28.2142614" lon="105.5356221"><ele>1637.94</ele><time>2026-07-04T19:11:38.000Z</time></trkpt>
        <trkpt lat="28.2141935" lon="105.5355597"><ele>1640.72</ele><time>2026-07-04T19:12:08.000Z</time></trkpt>
        <trkpt lat="28.2141276" lon="105.535472"><ele>1644</ele><time>2026-07-04T19:12:38.000Z</time></trkpt>
        <trkpt lat="28.2141107" lon="105.5354431"><ele>1645.78</ele><time>2026-07-04T19:12:40.000Z</time></trkpt>
        <trkpt lat="28.2140729" lon="105.5353691"><ele>1646.74</ele><time>2026-07-04T19:13:23.000Z</time></trkpt>
        <trkpt lat="28.2139943" lon="105.5353329"><ele>1648.09</ele><time>2026-07-04T19:13:41.000Z</time></trkpt>
        <trkpt lat="28.2139054" lon="105.5352947"><ele>1648.91</ele><time>2026-07-04T19:13:59.000Z</time></trkpt>
        <trkpt lat="28.2138266" lon="105.5352355"><ele>1651.45</ele><time>2026-07-04T19:14:17.000Z</time></trkpt>
        <trkpt lat="28.2137479" lon="105.5351793"><ele>1652.28</ele><time>2026-07-04T19:14:35.000Z</time></trkpt>
        <trkpt lat="28.2137189" lon="105.5351607"><ele>1653.82</ele><time>2026-07-04T19:14:39.000Z</time></trkpt>
        <trkpt lat="28.2137662" lon="105.5351048"><ele>1654.4</ele><time>2026-07-04T19:14:53.000Z</time></trkpt>
        <trkpt lat="28.2137229" lon="105.5350713"><ele>1656.35</ele><time>2026-07-04T19:15:09.000Z</time></trkpt>
        <trkpt lat="28.2136967" lon="105.5349794"><ele>1658.13</ele><time>2026-07-04T19:15:57.000Z</time></trkpt>
        <trkpt lat="28.2137399" lon="105.5348913"><ele>1659.04</ele><time>2026-07-04T19:16:21.000Z</time></trkpt>
        <trkpt lat="28.2137716" lon="105.534786"><ele>1659.57</ele><time>2026-07-04T19:16:41.000Z</time></trkpt>
        <trkpt lat="28.2137567" lon="105.5346848"><ele>1661.66</ele><time>2026-07-04T19:17:01.000Z</time></trkpt>
        <trkpt lat="28.2137543" lon="105.5345784"><ele>1662.67</ele><time>2026-07-04T19:17:13.000Z</time></trkpt>
        <trkpt lat="28.2137274" lon="105.5344669"><ele>1663.86</ele><time>2026-07-04T19:17:27.000Z</time></trkpt>
        <trkpt lat="28.2137462" lon="105.5343678"><ele>1665.72</ele><time>2026-07-04T19:17:51.000Z</time></trkpt>
        <trkpt lat="28.2137314" lon="105.5342597"><ele>1666.74</ele><time>2026-07-04T19:18:08.000Z</time></trkpt>
        <trkpt lat="28.2137214" lon="105.5341384"><ele>1668.67</ele><time>2026-07-04T19:18:22.000Z</time></trkpt>
        <trkpt lat="28.2136709" lon="105.5340659"><ele>1670.09</ele><time>2026-07-04T19:18:42.000Z</time></trkpt>
        <trkpt lat="28.2136045" lon="105.5339971"><ele>1671.34</ele><time>2026-07-04T19:19:06.000Z</time></trkpt>
        <trkpt lat="28.2135705" lon="105.5339492"><ele>1673.33</ele><time>2026-07-04T19:19:14.000Z</time></trkpt>
        <trkpt lat="28.2135354" lon="105.5338701"><ele>1675.25</ele><time>2026-07-04T19:19:42.000Z</time></trkpt>
        <trkpt lat="28.2134897" lon="105.5337819"><ele>1676.74</ele><time>2026-07-04T19:19:58.000Z</time></trkpt>
        <trkpt lat="28.2135212" lon="105.5336942"><ele>1676.42</ele><time>2026-07-04T19:20:14.000Z</time></trkpt>
        <trkpt lat="28.2135444" lon="105.533592"><ele>1675.79</ele><time>2026-07-04T19:20:44.000Z</time></trkpt>
        <trkpt lat="28.213536" lon="105.5334903"><ele>1677.54</ele><time>2026-07-04T19:20:58.000Z</time></trkpt>
        <trkpt lat="28.2134681" lon="105.5334194"><ele>1681.48</ele><time>2026-07-04T19:21:24.000Z</time></trkpt>
        <trkpt lat="28.2134278" lon="105.5333293"><ele>1683.69</ele><time>2026-07-04T19:21:42.000Z</time></trkpt>
        <trkpt lat="28.2134144" lon="105.5332263"><ele>1686.3</ele><time>2026-07-04T19:22:00.000Z</time></trkpt>
        <trkpt lat="28.2133963" lon="105.5331179"><ele>1688.39</ele><time>2026-07-04T19:22:16.000Z</time></trkpt>
        <trkpt lat="28.2133985" lon="105.533009"><ele>1689.17</ele><time>2026-07-04T19:22:44.000Z</time></trkpt>
        <trkpt lat="28.2134019" lon="105.5328967"><ele>1691.02</ele><time>2026-07-04T19:23:02.000Z</time></trkpt>
        <trkpt lat="28.2134089" lon="105.5327868"><ele>1693.84</ele><time>2026-07-04T19:23:21.000Z</time></trkpt>
        <trkpt lat="28.2134188" lon="105.5326801"><ele>1693.57</ele><time>2026-07-04T19:23:41.000Z</time></trkpt>
        <trkpt lat="28.2134231" lon="105.5325769"><ele>1694.75</ele><time>2026-07-04T19:24:41.000Z</time></trkpt>
        <trkpt lat="28.2133712" lon="105.5324927"><ele>1696.44</ele><time>2026-07-04T19:25:05.000Z</time></trkpt>
        <trkpt lat="28.2133566" lon="105.5324543"><ele>1699.69</ele><time>2026-07-04T19:25:07.000Z</time></trkpt>
        <trkpt lat="28.2133189" lon="105.5323817"><ele>1701.93</ele><time>2026-07-04T19:25:43.000Z</time></trkpt>
        <trkpt lat="28.2132823" lon="105.5322863"><ele>1703.96</ele><time>2026-07-04T19:26:01.000Z</time></trkpt>
        <trkpt lat="28.2132531" lon="105.5322287"><ele>1705.04</ele><time>2026-07-04T19:26:11.000Z</time></trkpt>
        <trkpt lat="28.2132049" lon="105.5321455"><ele>1706.34</ele><time>2026-07-04T19:26:49.000Z</time></trkpt>
        <trkpt lat="28.2131205" lon="105.53215"><ele>1707.92</ele><time>2026-07-04T19:27:09.000Z</time></trkpt>
        <trkpt lat="28.2130807" lon="105.5320835"><ele>1712.42</ele><time>2026-07-04T19:27:23.000Z</time></trkpt>
        <trkpt lat="28.2130646" lon="105.5319812"><ele>1714.29</ele><time>2026-07-04T19:27:57.000Z</time></trkpt>
        <trkpt lat="28.2130418" lon="105.5318663"><ele>1714.5</ele><time>2026-07-04T19:28:09.000Z</time></trkpt>
        <trkpt lat="28.2129595" lon="105.5318203"><ele>1715.69</ele><time>2026-07-04T19:29:40.000Z</time></trkpt>
        <trkpt lat="28.2129416" lon="105.5318842"><ele>1718.97</ele><time>2026-07-04T19:29:56.000Z</time></trkpt>
        <trkpt lat="28.2128648" lon="105.5319282"><ele>1719.95</ele><time>2026-07-04T19:30:32.000Z</time></trkpt>
        <trkpt lat="28.2127801" lon="105.5319766"><ele>1722.48</ele><time>2026-07-04T19:30:50.000Z</time></trkpt>
        <trkpt lat="28.2127328" lon="105.5320698"><ele>1725.25</ele><time>2026-07-04T19:32:51.000Z</time></trkpt>
        <trkpt lat="28.2126887" lon="105.5321698"><ele>1728.25</ele><time>2026-07-04T19:34:03.000Z</time></trkpt>
        <trkpt lat="28.2126785" lon="105.5322118"><ele>1729.88</ele><time>2026-07-04T19:34:11.000Z</time></trkpt>
        <trkpt lat="28.2126453" lon="105.5322992"><ele>1730.66</ele><time>2026-07-04T19:34:31.000Z</time></trkpt>
        <trkpt lat="28.2126291" lon="105.532328"><ele>1731.48</ele><time>2026-07-04T19:34:39.000Z</time></trkpt>
        <trkpt lat="28.2126085" lon="105.5324149"><ele>1731.77</ele><time>2026-07-04T19:35:09.000Z</time></trkpt>
        <trkpt lat="28.2125844" lon="105.5325158"><ele>1731.82</ele><time>2026-07-04T19:35:33.000Z</time></trkpt>
        <trkpt lat="28.2125411" lon="105.5326133"><ele>1731.09</ele><time>2026-07-04T19:36:13.000Z</time></trkpt>
        <trkpt lat="28.2125387" lon="105.5327171"><ele>1730.69</ele><time>2026-07-04T19:36:27.000Z</time></trkpt>
        <trkpt lat="28.2125573" lon="105.5328272"><ele>1731.56</ele><time>2026-07-04T19:36:45.000Z</time></trkpt>
        <trkpt lat="28.2125872" lon="105.5329386"><ele>1732.67</ele><time>2026-07-04T19:38:05.000Z</time></trkpt>
        <trkpt lat="28.2125821" lon="105.5330514"><ele>1727.4</ele><time>2026-07-04T19:38:19.000Z</time></trkpt>
        <trkpt lat="28.2125938" lon="105.5331196"><ele>1723.79</ele><time>2026-07-04T19:38:37.000Z</time></trkpt>
        <trkpt lat="28.2125959" lon="105.533226"><ele>1721.44</ele><time>2026-07-04T19:40:26.000Z</time></trkpt>
        <trkpt lat="28.2125955" lon="105.5332318"><ele>1719.81</ele><time>2026-07-04T19:40:30.000Z</time></trkpt>
        <trkpt lat="28.2126272" lon="105.5333145"><ele>1718.93</ele><time>2026-07-04T19:40:54.000Z</time></trkpt>
        <trkpt lat="28.2126299" lon="105.5334286"><ele>1717.59</ele><time>2026-07-04T19:41:06.000Z</time></trkpt>
        <trkpt lat="28.2126029" lon="105.533536"><ele>1717.43</ele><time>2026-07-04T19:41:36.000Z</time></trkpt>
        <trkpt lat="28.2125844" lon="105.5335519"><ele>1717.54</ele><time>2026-07-04T19:41:40.000Z</time></trkpt>
        <trkpt lat="28.2125395" lon="105.5336241"><ele>1717.25</ele><time>2026-07-04T19:42:00.000Z</time></trkpt>
        <trkpt lat="28.2125857" lon="105.5336849"><ele>1718.61</ele><time>2026-07-04T19:42:52.000Z</time></trkpt>
        <trkpt lat="28.2125498" lon="105.5337635"><ele>1716.25</ele><time>2026-07-04T19:44:41.000Z</time></trkpt>
        <trkpt lat="28.2125262" lon="105.5338701"><ele>1714.86</ele><time>2026-07-04T19:45:59.000Z</time></trkpt>
        <trkpt lat="28.2124943" lon="105.5339755"><ele>1713.68</ele><time>2026-07-04T19:46:31.000Z</time></trkpt>
        <trkpt lat="28.2124538" lon="105.5340727"><ele>1713.62</ele><time>2026-07-04T19:47:01.000Z</time></trkpt>
        <trkpt lat="28.2124463" lon="105.5341743"><ele>1714.41</ele><time>2026-07-04T19:47:29.000Z</time></trkpt>
        <trkpt lat="28.2125248" lon="105.5342586"><ele>1715.07</ele><time>2026-07-04T19:48:33.000Z</time></trkpt>
        <trkpt lat="28.2125746" lon="105.5343456"><ele>1711.6</ele><time>2026-07-04T19:48:59.000Z</time></trkpt>
        <trkpt lat="28.21261" lon="105.5344442"><ele>1709.13</ele><time>2026-07-04T19:49:23.000Z</time></trkpt>
        <trkpt lat="28.212592" lon="105.5345472"><ele>1709.11</ele><time>2026-07-04T19:50:58.000Z</time></trkpt>
        <trkpt lat="28.2126051" lon="105.534651"><ele>1707.31</ele><time>2026-07-04T19:51:30.000Z</time></trkpt>
        <trkpt lat="28.2126371" lon="105.5347491"><ele>1704.22</ele><time>2026-07-04T19:52:18.000Z</time></trkpt>
        <trkpt lat="28.2127045" lon="105.5348269"><ele>1700.99</ele><time>2026-07-04T19:52:54.000Z</time></trkpt>
        <trkpt lat="28.2127275" lon="105.5348678"><ele>1699.51</ele><time>2026-07-04T19:53:00.000Z</time></trkpt>
        <trkpt lat="28.2127324" lon="105.5349498"><ele>1699.17</ele><time>2026-07-04T19:53:32.000Z</time></trkpt>
        <trkpt lat="28.2126961" lon="105.5350629"><ele>1697.1</ele><time>2026-07-04T19:54:39.000Z</time></trkpt>
        <trkpt lat="28.2126941" lon="105.5350719"><ele>1693.4</ele><time>2026-07-04T19:54:43.000Z</time></trkpt>
        <trkpt lat="28.2127578" lon="105.5350083"><ele>1691.45</ele><time>2026-07-04T19:55:03.000Z</time></trkpt>
        <trkpt lat="28.212804" lon="105.5350103"><ele>1690</ele><time>2026-07-04T19:55:15.000Z</time></trkpt>
        <trkpt lat="28.2127817" lon="105.5351278"><ele>1689.72</ele><time>2026-07-04T19:57:09.000Z</time></trkpt>
        <trkpt lat="28.2127612" lon="105.5351491"><ele>1687.97</ele><time>2026-07-04T19:57:19.000Z</time></trkpt>
        <trkpt lat="28.2127772" lon="105.5352522"><ele>1686.75</ele><time>2026-07-04T19:58:41.000Z</time></trkpt>
        <trkpt lat="28.2127669" lon="105.5353647"><ele>1686.72</ele><time>2026-07-04T19:59:12.000Z</time></trkpt>
        <trkpt lat="28.2127343" lon="105.5354671"><ele>1687.05</ele><time>2026-07-04T19:59:26.000Z</time></trkpt>
        <trkpt lat="28.2127377" lon="105.535532"><ele>1687.02</ele><time>2026-07-04T19:59:36.000Z</time></trkpt>
        <trkpt lat="28.2127098" lon="105.5356316"><ele>1688.59</ele><time>2026-07-04T20:00:38.000Z</time></trkpt>
        <trkpt lat="28.2127381" lon="105.5357328"><ele>1691.43</ele><time>2026-07-04T20:05:48.000Z</time></trkpt>
        <trkpt lat="28.212798" lon="105.535837"><ele>1692.84</ele><time>2026-07-04T20:06:20.000Z</time></trkpt>
        <trkpt lat="28.2127837" lon="105.5358971"><ele>1693.39</ele><time>2026-07-04T20:06:34.000Z</time></trkpt>
        <trkpt lat="28.2128021" lon="105.5359961"><ele>1692.89</ele><time>2026-07-04T20:07:51.000Z</time></trkpt>
        <trkpt lat="28.2128475" lon="105.5360906"><ele>1689.98</ele><time>2026-07-04T20:08:13.000Z</time></trkpt>
        <trkpt lat="28.2128357" lon="105.5361943"><ele>1687.43</ele><time>2026-07-04T20:08:47.000Z</time></trkpt>
        <trkpt lat="28.2128245" lon="105.5363055"><ele>1684.98</ele><time>2026-07-04T20:09:03.000Z</time></trkpt>
        <trkpt lat="28.212836" lon="105.536417"><ele>1682.97</ele><time>2026-07-04T20:09:19.000Z</time></trkpt>
        <trkpt lat="28.2128388" lon="105.5364463"><ele>1681.75</ele><time>2026-07-04T20:09:23.000Z</time></trkpt>
        <trkpt lat="28.2127962" lon="105.5365157"><ele>1681</ele><time>2026-07-04T20:09:43.000Z</time></trkpt>
        <trkpt lat="28.2127621" lon="105.5365762"><ele>1678.37</ele><time>2026-07-04T20:09:53.000Z</time></trkpt>
        <trkpt lat="28.2127081" lon="105.5366706"><ele>1676.43</ele><time>2026-07-04T20:10:11.000Z</time></trkpt>
        <trkpt lat="28.212687" lon="105.5367792"><ele>1676.16</ele><time>2026-07-04T20:10:21.000Z</time></trkpt>
        <trkpt lat="28.2126743" lon="105.5368632"><ele>1676.91</ele><time>2026-07-04T20:10:33.000Z</time></trkpt>
        <trkpt lat="28.2126568" lon="105.5369637"><ele>1677.61</ele><time>2026-07-04T20:10:45.000Z</time></trkpt>
        <trkpt lat="28.212663" lon="105.5370184"><ele>1680.55</ele><time>2026-07-04T20:10:57.000Z</time></trkpt>
        <trkpt lat="28.2126042" lon="105.5370705"><ele>1681.44</ele><time>2026-07-04T20:11:13.000Z</time></trkpt>
        <trkpt lat="28.2125211" lon="105.5371256"><ele>1678.62</ele><time>2026-07-04T20:11:29.000Z</time></trkpt>
        <trkpt lat="28.2124147" lon="105.5371636"><ele>1677.38</ele><time>2026-07-04T20:11:43.000Z</time></trkpt>
        <trkpt lat="28.2123642" lon="105.5372136"><ele>1677.22</ele><time>2026-07-04T20:12:07.000Z</time></trkpt>
        <trkpt lat="28.2123042" lon="105.5372917"><ele>1677.52</ele><time>2026-07-04T20:12:35.000Z</time></trkpt>
        <trkpt lat="28.212283" lon="105.5373181"><ele>1678.47</ele><time>2026-07-04T20:12:37.000Z</time></trkpt>
        <trkpt lat="28.2122512" lon="105.5373935"><ele>1678.6</ele><time>2026-07-04T20:13:06.000Z</time></trkpt>
        <trkpt lat="28.2122614" lon="105.5374906"><ele>1680.2</ele><time>2026-07-04T20:13:22.000Z</time></trkpt>
        <trkpt lat="28.2122213" lon="105.5375772"><ele>1680.94</ele><time>2026-07-04T20:13:40.000Z</time></trkpt>
        <trkpt lat="28.2121762" lon="105.5376284"><ele>1682.13</ele><time>2026-07-04T20:13:56.000Z</time></trkpt>
        <trkpt lat="28.2121015" lon="105.5376799"><ele>1683.5</ele><time>2026-07-04T20:14:12.000Z</time></trkpt>
        <trkpt lat="28.2120051" lon="105.537722"><ele>1685.09</ele><time>2026-07-04T20:14:24.000Z</time></trkpt>
        <trkpt lat="28.2119071" lon="105.5377329"><ele>1686.99</ele><time>2026-07-04T20:14:40.000Z</time></trkpt>
        <trkpt lat="28.2118288" lon="105.5377813"><ele>1689.92</ele><time>2026-07-04T20:15:16.000Z</time></trkpt>
        <trkpt lat="28.2118131" lon="105.537857"><ele>1692.7</ele><time>2026-07-04T20:15:26.000Z</time></trkpt>
        <trkpt lat="28.2117522" lon="105.5379225"><ele>1692.87</ele><time>2026-07-04T20:15:40.000Z</time></trkpt>
        <trkpt lat="28.2116702" lon="105.5379604"><ele>1692.7</ele><time>2026-07-04T20:16:00.000Z</time></trkpt>
        <trkpt lat="28.2115735" lon="105.5379716"><ele>1693.31</ele><time>2026-07-04T20:16:20.000Z</time></trkpt>
        <trkpt lat="28.2114901" lon="105.5380154"><ele>1695.24</ele><time>2026-07-04T20:16:48.000Z</time></trkpt>
        <trkpt lat="28.2114437" lon="105.538101"><ele>1696.96</ele><time>2026-07-04T20:17:20.000Z</time></trkpt>
        <trkpt lat="28.211383" lon="105.5381706"><ele>1699.72</ele><time>2026-07-04T20:17:50.000Z</time></trkpt>
        <trkpt lat="28.2113123" lon="105.5382422"><ele>1699.7</ele><time>2026-07-04T20:18:08.000Z</time></trkpt>
        <trkpt lat="28.2112456" lon="105.5383184"><ele>1701.18</ele><time>2026-07-04T20:18:24.000Z</time></trkpt>
        <trkpt lat="28.2111783" lon="105.5383979"><ele>1703.64</ele><time>2026-07-04T20:18:46.000Z</time></trkpt>
        <trkpt lat="28.2111016" lon="105.5384685"><ele>1705.79</ele><time>2026-07-04T20:19:08.000Z</time></trkpt>
        <trkpt lat="28.2110267" lon="105.5385487"><ele>1707.83</ele><time>2026-07-04T20:19:32.000Z</time></trkpt>
        <trkpt lat="28.2109998" lon="105.5385741"><ele>1709.38</ele><time>2026-07-04T20:19:38.000Z</time></trkpt>
        <trkpt lat="28.2109525" lon="105.538642"><ele>1710.25</ele><time>2026-07-04T20:19:57.000Z</time></trkpt>
        <trkpt lat="28.2108805" lon="105.5387045"><ele>1711.86</ele><time>2026-07-04T20:20:13.000Z</time></trkpt>
        <trkpt lat="28.2107999" lon="105.5387631"><ele>1713.06</ele><time>2026-07-04T20:20:33.000Z</time></trkpt>
        <trkpt lat="28.2107139" lon="105.5388253"><ele>1713.73</ele><time>2026-07-04T20:20:51.000Z</time></trkpt>
        <trkpt lat="28.2106139" lon="105.5388468"><ele>1714.72</ele><time>2026-07-04T20:21:03.000Z</time></trkpt>
        <trkpt lat="28.2105203" lon="105.5388971"><ele>1716.2</ele><time>2026-07-04T20:21:27.000Z</time></trkpt>
        <trkpt lat="28.2104361" lon="105.5389688"><ele>1718.1</ele><time>2026-07-04T20:21:47.000Z</time></trkpt>
        <trkpt lat="28.2104648" lon="105.5390842"><ele>1720.36</ele><time>2026-07-04T20:26:39.000Z</time></trkpt>
        <trkpt lat="28.2104542" lon="105.5390886"><ele>1720.17</ele><time>2026-07-04T20:26:49.000Z</time></trkpt>
        <trkpt lat="28.2103526" lon="105.5392662"><ele>1719.85</ele><time>2026-07-04T20:27:55.000Z</time></trkpt>
        <trkpt lat="28.2103517" lon="105.5391435"><ele>1720.93</ele><time>2026-07-04T20:28:01.000Z</time></trkpt>
        <trkpt lat="28.2103254" lon="105.5392152"><ele>1721.87</ele><time>2026-07-04T20:28:21.000Z</time></trkpt>
        <trkpt lat="28.2102565" lon="105.5392789"><ele>1722.34</ele><time>2026-07-04T20:28:35.000Z</time></trkpt>
        <trkpt lat="28.2102023" lon="105.5393309"><ele>1723.9</ele><time>2026-07-04T20:28:47.000Z</time></trkpt>
        <trkpt lat="28.2101419" lon="105.5394074"><ele>1723.77</ele><time>2026-07-04T20:29:10.000Z</time></trkpt>
        <trkpt lat="28.2100642" lon="105.5394702"><ele>1721.78</ele><time>2026-07-04T20:29:50.000Z</time></trkpt>
        <trkpt lat="28.209966" lon="105.5394902"><ele>1724.7</ele><time>2026-07-04T20:30:10.000Z</time></trkpt>
        <trkpt lat="28.20987" lon="105.5394784"><ele>1726.91</ele><time>2026-07-04T20:30:26.000Z</time></trkpt>
        <trkpt lat="28.2098044" lon="105.539557"><ele>1731.85</ele><time>2026-07-04T20:31:16.000Z</time></trkpt>
        <trkpt lat="28.2097095" lon="105.5395897"><ele>1731.96</ele><time>2026-07-04T20:31:36.000Z</time></trkpt>
        <trkpt lat="28.2096998" lon="105.5395728"><ele>1734.08</ele><time>2026-07-04T20:31:38.000Z</time></trkpt>
        <trkpt lat="28.2096733" lon="105.5396453"><ele>1735.35</ele><time>2026-07-04T20:33:08.000Z</time></trkpt>
        <trkpt lat="28.2096646" lon="105.5397479"><ele>1738.47</ele><time>2026-07-04T20:33:30.000Z</time></trkpt>
        <trkpt lat="28.2096374" lon="105.5398448"><ele>1740.5</ele><time>2026-07-04T20:34:00.000Z</time></trkpt>
        <trkpt lat="28.2096253" lon="105.539873"><ele>1741.44</ele><time>2026-07-04T20:34:04.000Z</time></trkpt>
        <trkpt lat="28.2096613" lon="105.5399436"><ele>1741.76</ele><time>2026-07-04T20:34:46.000Z</time></trkpt>
        <trkpt lat="28.2096704" lon="105.5400417"><ele>1742.83</ele><time>2026-07-04T20:35:26.000Z</time></trkpt>
        <trkpt lat="28.2096481" lon="105.5401609"><ele>1741.68</ele><time>2026-07-04T20:36:02.000Z</time></trkpt>
        <trkpt lat="28.2097031" lon="105.5401003"><ele>1739.76</ele><time>2026-07-04T20:37:58.000Z</time></trkpt>
        <trkpt lat="28.2096586" lon="105.5400043"><ele>1738.9</ele><time>2026-07-04T20:38:16.000Z</time></trkpt>
        <trkpt lat="28.2096354" lon="105.5399038"><ele>1738.76</ele><time>2026-07-04T20:38:55.000Z</time></trkpt>
        <trkpt lat="28.2096788" lon="105.5398019"><ele>1740.96</ele><time>2026-07-04T20:40:24.000Z</time></trkpt>
        <trkpt lat="28.2096706" lon="105.5396853"><ele>1740.67</ele><time>2026-07-04T20:40:56.000Z</time></trkpt>
        <trkpt lat="28.2096735" lon="105.5395972"><ele>1741.91</ele><time>2026-07-04T20:41:12.000Z</time></trkpt>
        <trkpt lat="28.2097082" lon="105.5395005"><ele>1742.5</ele><time>2026-07-04T20:41:36.000Z</time></trkpt>
        <trkpt lat="28.2097205" lon="105.5394769"><ele>1745.07</ele><time>2026-07-04T20:41:38.000Z</time></trkpt>
        <trkpt lat="28.2096826" lon="105.539417"><ele>1746.35</ele><time>2026-07-04T20:41:58.000Z</time></trkpt>
        <trkpt lat="28.2097585" lon="105.539399"><ele>1747.81</ele><time>2026-07-04T20:48:47.000Z</time></trkpt>
        <trkpt lat="28.2098444" lon="105.5393596"><ele>1746.38</ele><time>2026-07-04T20:49:11.000Z</time></trkpt>
        <trkpt lat="28.2099011" lon="105.5393204"><ele>1745.83</ele><time>2026-07-04T20:49:26.000Z</time></trkpt>
        <trkpt lat="28.2099743" lon="105.5392627"><ele>1744.76</ele><time>2026-07-04T20:49:50.000Z</time></trkpt>
        <trkpt lat="28.210054" lon="105.5392075"><ele>1743.87</ele><time>2026-07-04T20:50:18.000Z</time></trkpt>
        <trkpt lat="28.2101481" lon="105.5391917"><ele>1739.52</ele><time>2026-07-04T20:50:34.000Z</time></trkpt>
        <trkpt lat="28.210246" lon="105.5391665"><ele>1735.87</ele><time>2026-07-04T20:51:00.000Z</time></trkpt>
        <trkpt lat="28.2103269" lon="105.539109"><ele>1731.45</ele><time>2026-07-04T20:51:20.000Z</time></trkpt>
        <trkpt lat="28.2104003" lon="105.5390455"><ele>1729.47</ele><time>2026-07-04T20:51:58.000Z</time></trkpt>
        <trkpt lat="28.2104877" lon="105.5390273"><ele>1727.51</ele><time>2026-07-04T20:52:14.000Z</time></trkpt>
        <trkpt lat="28.2105005" lon="105.5391037"><ele>1726.71</ele><time>2026-07-04T20:52:26.000Z</time></trkpt>
        <trkpt lat="28.2104819" lon="105.5392514"><ele>1724.49</ele><time>2026-07-04T20:53:40.000Z</time></trkpt>
        <trkpt lat="28.2104339" lon="105.5393428"><ele>1720.95</ele><time>2026-07-04T20:54:02.000Z</time></trkpt>
        <trkpt lat="28.2104633" lon="105.5392387"><ele>1718.7</ele><time>2026-07-04T20:55:46.000Z</time></trkpt>
        <trkpt lat="28.2104657" lon="105.5391221"><ele>1717.4</ele><time>2026-07-04T20:56:08.000Z</time></trkpt>
        <trkpt lat="28.2104148" lon="105.539036"><ele>1717.59</ele><time>2026-07-04T20:56:24.000Z</time></trkpt>
        <trkpt lat="28.2104615" lon="105.5389551"><ele>1718.74</ele><time>2026-07-04T20:56:44.000Z</time></trkpt>
        <trkpt lat="28.2104785" lon="105.5389367"><ele>1719.69</ele><time>2026-07-04T20:56:46.000Z</time></trkpt>
        <trkpt lat="28.2105392" lon="105.5388803"><ele>1720.03</ele><time>2026-07-04T21:07:07.000Z</time></trkpt>
        <trkpt lat="28.210617" lon="105.5388092"><ele>1720.31</ele><time>2026-07-04T21:07:21.000Z</time></trkpt>
        <trkpt lat="28.2107043" lon="105.5387596"><ele>1721.49</ele><time>2026-07-04T21:07:35.000Z</time></trkpt>
        <trkpt lat="28.2107999" lon="105.538748"><ele>1723.13</ele><time>2026-07-04T21:07:49.000Z</time></trkpt>
        <trkpt lat="28.2108685" lon="105.5386877"><ele>1724.06</ele><time>2026-07-04T21:08:11.000Z</time></trkpt>
        <trkpt lat="28.2109455" lon="105.5386335"><ele>1721.98</ele><time>2026-07-04T21:08:27.000Z</time></trkpt>
        <trkpt lat="28.2110182" lon="105.5385605"><ele>1720.42</ele><time>2026-07-04T21:08:43.000Z</time></trkpt>
        <trkpt lat="28.2110411" lon="105.5385191"><ele>1716.69</ele><time>2026-07-04T21:08:49.000Z</time></trkpt>
        <trkpt lat="28.2110748" lon="105.5384433"><ele>1714.12</ele><time>2026-07-04T21:09:07.000Z</time></trkpt>
        <trkpt lat="28.2111534" lon="105.5383974"><ele>1713.11</ele><time>2026-07-04T21:09:33.000Z</time></trkpt>
        <trkpt lat="28.2112316" lon="105.5383401"><ele>1711.36</ele><time>2026-07-04T21:09:53.000Z</time></trkpt>
        <trkpt lat="28.2112933" lon="105.5382513"><ele>1710.53</ele><time>2026-07-04T21:10:13.000Z</time></trkpt>
        <trkpt lat="28.2113347" lon="105.5382078"><ele>1710.16</ele><time>2026-07-04T21:10:27.000Z</time></trkpt>
        <trkpt lat="28.2114071" lon="105.5381629"><ele>1708.55</ele><time>2026-07-04T21:10:45.000Z</time></trkpt>
        <trkpt lat="28.2114682" lon="105.538092"><ele>1708.63</ele><time>2026-07-04T21:10:57.000Z</time></trkpt>
        <trkpt lat="28.2115577" lon="105.5380489"><ele>1710.1</ele><time>2026-07-04T21:11:38.000Z</time></trkpt>
        <trkpt lat="28.2116032" lon="105.5379568"><ele>1707.01</ele><time>2026-07-04T21:11:52.000Z</time></trkpt>
        <trkpt lat="28.2116185" lon="105.5379432"><ele>1705.1</ele><time>2026-07-04T21:11:58.000Z</time></trkpt>
        <trkpt lat="28.2116754" lon="105.5379065"><ele>1703.47</ele><time>2026-07-04T21:12:26.000Z</time></trkpt>
        <trkpt lat="28.2117565" lon="105.537849"><ele>1702.11</ele><time>2026-07-04T21:12:48.000Z</time></trkpt>
        <trkpt lat="28.2118491" lon="105.5378212"><ele>1702.48</ele><time>2026-07-04T21:13:02.000Z</time></trkpt>
        <trkpt lat="28.2119355" lon="105.5377621"><ele>1703.02</ele><time>2026-07-04T21:13:28.000Z</time></trkpt>
        <trkpt lat="28.211987" lon="105.5377161"><ele>1699.36</ele><time>2026-07-04T21:13:38.000Z</time></trkpt>
        <trkpt lat="28.2120682" lon="105.5377074"><ele>1696.9</ele><time>2026-07-04T21:13:50.000Z</time></trkpt>
        <trkpt lat="28.2121423" lon="105.5376574"><ele>1694.94</ele><time>2026-07-04T21:14:02.000Z</time></trkpt>
        <trkpt lat="28.2122071" lon="105.5376015"><ele>1693.62</ele><time>2026-07-04T21:14:14.000Z</time></trkpt>
        <trkpt lat="28.2122793" lon="105.5375216"><ele>1694.51</ele><time>2026-07-04T21:14:50.000Z</time></trkpt>
        <trkpt lat="28.2123369" lon="105.5374224"><ele>1692.44</ele><time>2026-07-04T21:15:12.000Z</time></trkpt>
        <trkpt lat="28.212366" lon="105.5373749"><ele>1690.73</ele><time>2026-07-04T21:15:20.000Z</time></trkpt>
        <trkpt lat="28.2123895" lon="105.5372901"><ele>1689.31</ele><time>2026-07-04T21:15:56.000Z</time></trkpt>
        <trkpt lat="28.2124054" lon="105.5371897"><ele>1686.35</ele><time>2026-07-04T21:16:14.000Z</time></trkpt>
        <trkpt lat="28.2124692" lon="105.5371113"><ele>1686.38</ele><time>2026-07-04T21:17:03.000Z</time></trkpt>
        <trkpt lat="28.2125554" lon="105.5370533"><ele>1682.9</ele><time>2026-07-04T21:17:23.000Z</time></trkpt>
        <trkpt lat="28.2126202" lon="105.5369735"><ele>1679.62</ele><time>2026-07-04T21:17:41.000Z</time></trkpt>
        <trkpt lat="28.2126707" lon="105.5368864"><ele>1676.94</ele><time>2026-07-04T21:18:01.000Z</time></trkpt>
        <trkpt lat="28.2127318" lon="105.5368017"><ele>1675.53</ele><time>2026-07-04T21:18:31.000Z</time></trkpt>
        <trkpt lat="28.2127386" lon="105.5367862"><ele>1674.75</ele><time>2026-07-04T21:18:35.000Z</time></trkpt>
        <trkpt lat="28.212805" lon="105.5367726"><ele>1674.43</ele><time>2026-07-04T21:19:05.000Z</time></trkpt>
        <trkpt lat="28.2129168" lon="105.5367476"><ele>1675.11</ele><time>2026-07-04T21:20:07.000Z</time></trkpt>
        <trkpt lat="28.2129961" lon="105.5368077"><ele>1676.38</ele><time>2026-07-04T21:21:15.000Z</time></trkpt>
        <trkpt lat="28.213088" lon="105.5368226"><ele>1675.01</ele><time>2026-07-04T21:22:11.000Z</time></trkpt>
        <trkpt lat="28.2131781" lon="105.5368342"><ele>1669.94</ele><time>2026-07-04T21:23:02.000Z</time></trkpt>
        <trkpt lat="28.2132774" lon="105.5368331"><ele>1666.59</ele><time>2026-07-04T21:23:30.000Z</time></trkpt>
        <trkpt lat="28.2133352" lon="105.5367558"><ele>1664.92</ele><time>2026-07-04T21:23:50.000Z</time></trkpt>
        <trkpt lat="28.2134226" lon="105.5367459"><ele>1660.43</ele><time>2026-07-04T21:25:16.000Z</time></trkpt>
        <trkpt lat="28.2135132" lon="105.5366939"><ele>1657.13</ele><time>2026-07-04T21:25:32.000Z</time></trkpt>
        <trkpt lat="28.213564" lon="105.536604"><ele>1655.99</ele><time>2026-07-04T21:26:02.000Z</time></trkpt>
        <trkpt lat="28.2136359" lon="105.5365378"><ele>1655.63</ele><time>2026-07-04T21:26:39.000Z</time></trkpt>
        <trkpt lat="28.2136749" lon="105.5364488"><ele>1654.21</ele><time>2026-07-04T21:26:57.000Z</time></trkpt>
        <trkpt lat="28.2137581" lon="105.5364453"><ele>1653.61</ele><time>2026-07-04T21:27:39.000Z</time></trkpt>
        <trkpt lat="28.2138236" lon="105.5363784"><ele>1652.01</ele><time>2026-07-04T21:28:25.000Z</time></trkpt>
        <trkpt lat="28.2138999" lon="105.5363059"><ele>1651.5</ele><time>2026-07-04T21:28:49.000Z</time></trkpt>
        <trkpt lat="28.2139739" lon="105.536232"><ele>1650.5</ele><time>2026-07-04T21:29:49.000Z</time></trkpt>
        <trkpt lat="28.213974" lon="105.5362295"><ele>1649.39</ele><time>2026-07-04T21:29:51.000Z</time></trkpt>
        <trkpt lat="28.2140168" lon="105.5361557"><ele>1648.52</ele><time>2026-07-04T21:30:27.000Z</time></trkpt>
        <trkpt lat="28.2140992" lon="105.5361104"><ele>1647.64</ele><time>2026-07-04T21:30:53.000Z</time></trkpt>
        <trkpt lat="28.2141973" lon="105.5360423"><ele>1649.08</ele><time>2026-07-04T21:32:10.000Z</time></trkpt>
        <trkpt lat="28.2141609" lon="105.5359473"><ele>1649.04</ele><time>2026-07-04T21:32:28.000Z</time></trkpt>
        <trkpt lat="28.214188" lon="105.5358662"><ele>1650.16</ele><time>2026-07-04T21:32:40.000Z</time></trkpt>
        <trkpt lat="28.2142485" lon="105.5357906"><ele>1650.07</ele><time>2026-07-04T21:33:20.000Z</time></trkpt>
        <trkpt lat="28.2143013" lon="105.5356875"><ele>1649.76</ele><time>2026-07-04T21:33:58.000Z</time></trkpt>
        <trkpt lat="28.2143161" lon="105.5356512"><ele>1649.41</ele><time>2026-07-04T21:34:02.000Z</time></trkpt>
        <trkpt lat="28.214379" lon="105.5356143"><ele>1649.43</ele><time>2026-07-04T21:34:34.000Z</time></trkpt>
        <trkpt lat="28.2144812" lon="105.5356373"><ele>1647.2</ele><time>2026-07-04T21:35:50.000Z</time></trkpt>
        <trkpt lat="28.2145658" lon="105.5356723"><ele>1644.41</ele><time>2026-07-04T21:36:14.000Z</time></trkpt>
        <trkpt lat="28.2146463" lon="105.5357176"><ele>1642.52</ele><time>2026-07-04T21:36:26.000Z</time></trkpt>
        <trkpt lat="28.2147322" lon="105.5357643"><ele>1640.26</ele><time>2026-07-04T21:36:42.000Z</time></trkpt>
        <trkpt lat="28.2148203" lon="105.5358009"><ele>1636.49</ele><time>2026-07-04T21:37:37.000Z</time></trkpt>
        <trkpt lat="28.2148986" lon="105.5358536"><ele>1633.55</ele><time>2026-07-04T21:38:33.000Z</time></trkpt>
        <trkpt lat="28.2149854" lon="105.535862"><ele>1632.04</ele><time>2026-07-04T21:39:13.000Z</time></trkpt>
        <trkpt lat="28.2150716" lon="105.5358275"><ele>1631.32</ele><time>2026-07-04T21:39:47.000Z</time></trkpt>
        <trkpt lat="28.215166" lon="105.5358597"><ele>1629.2</ele><time>2026-07-04T21:40:19.000Z</time></trkpt>
        <trkpt lat="28.2152464" lon="105.5359241"><ele>1627.43</ele><time>2026-07-04T21:40:41.000Z</time></trkpt>
        <trkpt lat="28.2153129" lon="105.5360147"><ele>1627.98</ele><time>2026-07-04T21:40:55.000Z</time></trkpt>
        <trkpt lat="28.2153946" lon="105.5360829"><ele>1628.83</ele><time>2026-07-04T21:41:23.000Z</time></trkpt>
        <trkpt lat="28.2153939" lon="105.5361755"><ele>1625.37</ele><time>2026-07-04T21:41:31.000Z</time></trkpt>
        <trkpt lat="28.2154145" lon="105.5362107"><ele>1622.48</ele><time>2026-07-04T21:41:37.000Z</time></trkpt>
        <trkpt lat="28.2154906" lon="105.5362442"><ele>1621.93</ele><time>2026-07-04T21:41:57.000Z</time></trkpt>
        <trkpt lat="28.2155769" lon="105.536293"><ele>1616.75</ele><time>2026-07-04T21:42:11.000Z</time></trkpt>
        <trkpt lat="28.2156805" lon="105.5363308"><ele>1613.62</ele><time>2026-07-04T21:42:27.000Z</time></trkpt>
        <trkpt lat="28.2157771" lon="105.5363546"><ele>1614.05</ele><time>2026-07-04T21:42:39.000Z</time></trkpt>
        <trkpt lat="28.2158615" lon="105.5364165"><ele>1614.33</ele><time>2026-07-04T21:42:55.000Z</time></trkpt>
        <trkpt lat="28.2159449" lon="105.5364629"><ele>1612.94</ele><time>2026-07-04T21:43:07.000Z</time></trkpt>
        <trkpt lat="28.2159653" lon="105.5364771"><ele>1613.69</ele><time>2026-07-04T21:43:13.000Z</time></trkpt>
        <trkpt lat="28.2160303" lon="105.5364856"><ele>1613.24</ele><time>2026-07-04T21:43:21.000Z</time></trkpt>
        <trkpt lat="28.2161056" lon="105.5365279"><ele>1613.4</ele><time>2026-07-04T21:43:31.000Z</time></trkpt>
        <trkpt lat="28.2161695" lon="105.5365378"><ele>1613.38</ele><time>2026-07-04T21:43:43.000Z</time></trkpt>
        <trkpt lat="28.2162539" lon="105.5365818"><ele>1613.74</ele><time>2026-07-04T21:44:01.000Z</time></trkpt>
        <trkpt lat="28.216334" lon="105.5366426"><ele>1613.34</ele><time>2026-07-04T21:44:23.000Z</time></trkpt>
        <trkpt lat="28.2163895" lon="105.5367306"><ele>1612.17</ele><time>2026-07-04T21:44:38.000Z</time></trkpt>
        <trkpt lat="28.216469" lon="105.5367938"><ele>1606.68</ele><time>2026-07-04T21:45:07.000Z</time></trkpt>
        <trkpt lat="28.2165492" lon="105.5368553"><ele>1604.43</ele><time>2026-07-04T21:45:21.000Z</time></trkpt>
        <trkpt lat="28.2166419" lon="105.5368735"><ele>1603.29</ele><time>2026-07-04T21:45:33.000Z</time></trkpt>
        <trkpt lat="28.2167375" lon="105.5368442"><ele>1602.13</ele><time>2026-07-04T21:45:43.000Z</time></trkpt>
        <trkpt lat="28.2168367" lon="105.5368442"><ele>1602.47</ele><time>2026-07-04T21:45:57.000Z</time></trkpt>
        <trkpt lat="28.216937" lon="105.5368517"><ele>1603.5</ele><time>2026-07-04T21:46:09.000Z</time></trkpt>
        <trkpt lat="28.2170333" lon="105.5368837"><ele>1602.44</ele><time>2026-07-04T21:46:21.000Z</time></trkpt>
        <trkpt lat="28.2170974" lon="105.5369578"><ele>1601.85</ele><time>2026-07-04T21:46:35.000Z</time></trkpt>
        <trkpt lat="28.217178" lon="105.5369929"><ele>1601.02</ele><time>2026-07-04T21:46:47.000Z</time></trkpt>
        <trkpt lat="28.2172692" lon="105.5370013"><ele>1601.28</ele><time>2026-07-04T21:46:57.000Z</time></trkpt>
        <trkpt lat="28.2173421" lon="105.5370149"><ele>1601.98</ele><time>2026-07-04T21:47:05.000Z</time></trkpt>
        <trkpt lat="28.2174286" lon="105.5370466"><ele>1601.48</ele><time>2026-07-04T21:47:19.000Z</time></trkpt>
        <trkpt lat="28.2175088" lon="105.5371091"><ele>1601.98</ele><time>2026-07-04T21:47:35.000Z</time></trkpt>
        <trkpt lat="28.2175606" lon="105.5372011"><ele>1603.42</ele><time>2026-07-04T21:47:47.000Z</time></trkpt>
        <trkpt lat="28.2175938" lon="105.537223"><ele>1603.79</ele><time>2026-07-04T21:47:59.000Z</time></trkpt>
        <trkpt lat="28.2176333" lon="105.5373039"><ele>1600.83</ele><time>2026-07-04T21:48:13.000Z</time></trkpt>
        <trkpt lat="28.2176608" lon="105.5373364"><ele>1599.82</ele><time>2026-07-04T21:48:17.000Z</time></trkpt>
        <trkpt lat="28.2176985" lon="105.5374183"><ele>1599.27</ele><time>2026-07-04T21:48:41.000Z</time></trkpt>
        <trkpt lat="28.2177197" lon="105.5374233"><ele>1597.88</ele><time>2026-07-04T21:48:47.000Z</time></trkpt>
        <trkpt lat="28.2177393" lon="105.5375146"><ele>1595.25</ele><time>2026-07-04T21:48:59.000Z</time></trkpt>
        <trkpt lat="28.217757" lon="105.5375337"><ele>1588.96</ele><time>2026-07-04T21:49:05.000Z</time></trkpt>
        <trkpt lat="28.2178316" lon="105.5375557"><ele>1584.74</ele><time>2026-07-04T21:49:37.000Z</time></trkpt>
        <trkpt lat="28.2179254" lon="105.5375716"><ele>1582.24</ele><time>2026-07-04T21:49:53.000Z</time></trkpt>
        <trkpt lat="28.2180126" lon="105.5376365"><ele>1580.82</ele><time>2026-07-04T21:50:08.000Z</time></trkpt>
        <trkpt lat="28.2180799" lon="105.5377222"><ele>1579.76</ele><time>2026-07-04T21:50:18.000Z</time></trkpt>
        <trkpt lat="28.2181706" lon="105.5377839"><ele>1581.26</ele><time>2026-07-04T21:50:32.000Z</time></trkpt>
        <trkpt lat="28.2181951" lon="105.5378759"><ele>1580.62</ele><time>2026-07-04T21:50:50.000Z</time></trkpt>
        <trkpt lat="28.2182643" lon="105.5379099"><ele>1578.61</ele><time>2026-07-04T21:51:14.000Z</time></trkpt>
        <trkpt lat="28.2183446" lon="105.537965"><ele>1574.33</ele><time>2026-07-04T21:51:30.000Z</time></trkpt>
        <trkpt lat="28.2183887" lon="105.5380552"><ele>1572.98</ele><time>2026-07-04T21:51:44.000Z</time></trkpt>
        <trkpt lat="28.218418" lon="105.5381611"><ele>1570.04</ele><time>2026-07-04T21:52:00.000Z</time></trkpt>
        <trkpt lat="28.2184246" lon="105.5382803"><ele>1567.81</ele><time>2026-07-04T21:52:10.000Z</time></trkpt>
        <trkpt lat="28.2184597" lon="105.5383591"><ele>1567.06</ele><time>2026-07-04T21:52:28.000Z</time></trkpt>
        <trkpt lat="28.2185335" lon="105.538402"><ele>1564.09</ele><time>2026-07-04T21:52:38.000Z</time></trkpt>
        <trkpt lat="28.2184789" lon="105.5383205"><ele>1562.25</ele><time>2026-07-04T21:54:40.000Z</time></trkpt>
        <trkpt lat="28.2185548" lon="105.5383971"><ele>1559.54</ele><time>2026-07-04T21:56:27.000Z</time></trkpt>
        <trkpt lat="28.2185786" lon="105.5384998"><ele>1555.83</ele><time>2026-07-04T21:56:35.000Z</time></trkpt>
        <trkpt lat="28.2185898" lon="105.5386042"><ele>1553.51</ele><time>2026-07-04T21:56:45.000Z</time></trkpt>
        <trkpt lat="28.2186272" lon="105.5387024"><ele>1553.25</ele><time>2026-07-04T21:57:01.000Z</time></trkpt>
        <trkpt lat="28.218652" lon="105.5388097"><ele>1553.37</ele><time>2026-07-04T21:57:21.000Z</time></trkpt>
        <trkpt lat="28.2187247" lon="105.5388831"><ele>1553.68</ele><time>2026-07-04T21:57:39.000Z</time></trkpt>
        <trkpt lat="28.2187747" lon="105.5389183"><ele>1552.12</ele><time>2026-07-04T21:57:47.000Z</time></trkpt>
        <trkpt lat="28.2188459" lon="105.5389646"><ele>1550.77</ele><time>2026-07-04T21:58:01.000Z</time></trkpt>
        <trkpt lat="28.2189297" lon="105.5389377"><ele>1549.36</ele><time>2026-07-04T21:58:13.000Z</time></trkpt>
        <trkpt lat="28.2190205" lon="105.538878"><ele>1548.38</ele><time>2026-07-04T21:58:25.000Z</time></trkpt>
        <trkpt lat="28.2190538" lon="105.5388661"><ele>1546.65</ele><time>2026-07-04T21:58:29.000Z</time></trkpt>
        <trkpt lat="28.219113" lon="105.5389211"><ele>1545.44</ele><time>2026-07-04T21:58:55.000Z</time></trkpt>
        <trkpt lat="28.2191519" lon="105.5390165"><ele>1542.81</ele><time>2026-07-04T21:59:07.000Z</time></trkpt>
        <trkpt lat="28.219178" lon="105.5391269"><ele>1541.11</ele><time>2026-07-04T21:59:17.000Z</time></trkpt>
        <trkpt lat="28.2192211" lon="105.5392393"><ele>1540.47</ele><time>2026-07-04T21:59:27.000Z</time></trkpt>
        <trkpt lat="28.2192882" lon="105.5393307"><ele>1540.57</ele><time>2026-07-04T21:59:41.000Z</time></trkpt>
        <trkpt lat="28.2193506" lon="105.5394264"><ele>1539.5</ele><time>2026-07-04T21:59:57.000Z</time></trkpt>
        <trkpt lat="28.2193971" lon="105.5394897"><ele>1539.45</ele><time>2026-07-04T22:00:09.000Z</time></trkpt>
        <trkpt lat="28.21947" lon="105.539559"><ele>1537.27</ele><time>2026-07-04T22:00:31.000Z</time></trkpt>
        <trkpt lat="28.2195466" lon="105.5396311"><ele>1532.15</ele><time>2026-07-04T22:00:43.000Z</time></trkpt>
        <trkpt lat="28.2196296" lon="105.5397026"><ele>1528.11</ele><time>2026-07-04T22:01:01.000Z</time></trkpt>
        <trkpt lat="28.2197209" lon="105.5397511"><ele>1524.47</ele><time>2026-07-04T22:01:19.000Z</time></trkpt>
        <trkpt lat="28.219787" lon="105.5398317"><ele>1521.87</ele><time>2026-07-04T22:01:33.000Z</time></trkpt>
        <trkpt lat="28.219862" lon="105.5398932"><ele>1520.2</ele><time>2026-07-04T22:01:49.000Z</time></trkpt>
        <trkpt lat="28.2199397" lon="105.5399452"><ele>1518.01</ele><time>2026-07-04T22:02:03.000Z</time></trkpt>
        <trkpt lat="28.2199983" lon="105.5400293"><ele>1515.42</ele><time>2026-07-04T22:02:16.000Z</time></trkpt>
        <trkpt lat="28.2200289" lon="105.5400513"><ele>1513.25</ele><time>2026-07-04T22:02:20.000Z</time></trkpt>
        <trkpt lat="28.22002" lon="105.5401274"><ele>1512.36</ele><time>2026-07-04T22:02:50.000Z</time></trkpt>
        <trkpt lat="28.2200656" lon="105.5402041"><ele>1511.11</ele><time>2026-07-04T22:03:16.000Z</time></trkpt>
        <trkpt lat="28.2201391" lon="105.5402659"><ele>1509.36</ele><time>2026-07-04T22:03:34.000Z</time></trkpt>
        <trkpt lat="28.2202328" lon="105.5403005"><ele>1506.53</ele><time>2026-07-04T22:03:48.000Z</time></trkpt>
        <trkpt lat="28.2202673" lon="105.5403287"><ele>1504.53</ele><time>2026-07-04T22:03:56.000Z</time></trkpt>
        <trkpt lat="28.2202699" lon="105.5402545"><ele>1501.53</ele><time>2026-07-04T22:04:42.000Z</time></trkpt>
        <trkpt lat="28.2202701" lon="105.5401361"><ele>1495.41</ele><time>2026-07-04T22:04:58.000Z</time></trkpt>
        <trkpt lat="28.2203344" lon="105.540061"><ele>1492.52</ele><time>2026-07-04T22:05:12.000Z</time></trkpt>
        <trkpt lat="28.2203718" lon="105.5400605"><ele>1489.52</ele><time>2026-07-04T22:05:18.000Z</time></trkpt>
        <trkpt lat="28.2203829" lon="105.5399472"><ele>1488.1</ele><time>2026-07-04T22:05:48.000Z</time></trkpt>
        <trkpt lat="28.2204557" lon="105.5399025"><ele>1485.63</ele><time>2026-07-04T22:05:54.000Z</time></trkpt>
        <trkpt lat="28.220521" lon="105.5398704"><ele>1482.61</ele><time>2026-07-04T22:06:02.000Z</time></trkpt>
        <trkpt lat="28.2204837" lon="105.5398152"><ele>1479.38</ele><time>2026-07-04T22:06:06.000Z</time></trkpt>
        <trkpt lat="28.2204802" lon="105.5398046"><ele>1477.67</ele><time>2026-07-04T22:06:14.000Z</time></trkpt>
        <trkpt lat="28.2204398" lon="105.5398984"><ele>1474.35</ele><time>2026-07-04T22:06:26.000Z</time></trkpt>
        <trkpt lat="28.2204145" lon="105.5400588"><ele>1473.72</ele><time>2026-07-04T22:08:17.000Z</time></trkpt>
        <trkpt lat="28.2204169" lon="105.5400714"><ele>1478.91</ele><time>2026-07-04T22:08:21.000Z</time></trkpt>
        <trkpt lat="28.2204297" lon="105.5399703"><ele>1482.67</ele><time>2026-07-04T22:11:06.000Z</time></trkpt>
        <trkpt lat="28.2205117" lon="105.5399164"><ele>1482.85</ele><time>2026-07-04T22:11:38.000Z</time></trkpt>
        <trkpt lat="28.2206029" lon="105.5398985"><ele>1483.12</ele><time>2026-07-04T22:11:52.000Z</time></trkpt>
        <trkpt lat="28.2206449" lon="105.5398141"><ele>1483.02</ele><time>2026-07-04T22:12:04.000Z</time></trkpt>
        <trkpt lat="28.2207084" lon="105.539727"><ele>1482.77</ele><time>2026-07-04T22:12:16.000Z</time></trkpt>
        <trkpt lat="28.2207741" lon="105.5396463"><ele>1482.76</ele><time>2026-07-04T22:12:26.000Z</time></trkpt>
        <trkpt lat="28.2208553" lon="105.5395833"><ele>1482.48</ele><time>2026-07-04T22:12:38.000Z</time></trkpt>
        <trkpt lat="28.2209417" lon="105.5395207"><ele>1481.95</ele><time>2026-07-04T22:12:50.000Z</time></trkpt>
        <trkpt lat="28.2210335" lon="105.5394657"><ele>1480.1</ele><time>2026-07-04T22:13:00.000Z</time></trkpt>
        <trkpt lat="28.2211241" lon="105.5394322"><ele>1479.53</ele><time>2026-07-04T22:13:10.000Z</time></trkpt>
        <trkpt lat="28.2212083" lon="105.539381"><ele>1478.55</ele><time>2026-07-04T22:13:22.000Z</time></trkpt>
        <trkpt lat="28.2212841" lon="105.539322"><ele>1478.79</ele><time>2026-07-04T22:13:40.000Z</time></trkpt>
        <trkpt lat="28.2213668" lon="105.5392585"><ele>1478.94</ele><time>2026-07-04T22:13:52.000Z</time></trkpt>
        <trkpt lat="28.2214235" lon="105.5392207"><ele>1479.2</ele><time>2026-07-04T22:14:02.000Z</time></trkpt>
        <trkpt lat="28.2215086" lon="105.5391825"><ele>1477.52</ele><time>2026-07-04T22:14:16.000Z</time></trkpt>
        <trkpt lat="28.2215611" lon="105.5391692"><ele>1477.59</ele><time>2026-07-04T22:14:24.000Z</time></trkpt>
        <trkpt lat="28.2216401" lon="105.5391701"><ele>1477.45</ele><time>2026-07-04T22:14:42.000Z</time></trkpt>
        <trkpt lat="28.2217314" lon="105.5391621"><ele>1477.41</ele><time>2026-07-04T22:14:56.000Z</time></trkpt>
        <trkpt lat="28.2218155" lon="105.5391172"><ele>1477.77</ele><time>2026-07-04T22:15:08.000Z</time></trkpt>
        <trkpt lat="28.2218687" lon="105.5390272"><ele>1477.56</ele><time>2026-07-04T22:15:22.000Z</time></trkpt>
        <trkpt lat="28.221885" lon="105.5389206"><ele>1477.77</ele><time>2026-07-04T22:15:33.000Z</time></trkpt>
        <trkpt lat="28.2219149" lon="105.5388054"><ele>1478.25</ele><time>2026-07-04T22:15:45.000Z</time></trkpt>
        <trkpt lat="28.2219509" lon="105.5387368"><ele>1479.48</ele><time>2026-07-04T22:15:55.000Z</time></trkpt>
        <trkpt lat="28.2220126" lon="105.5386741"><ele>1478.45</ele><time>2026-07-04T22:16:07.000Z</time></trkpt>
        <trkpt lat="28.2220801" lon="105.5386066"><ele>1477.74</ele><time>2026-07-04T22:16:19.000Z</time></trkpt>
        <trkpt lat="28.2221628" lon="105.538543"><ele>1477.33</ele><time>2026-07-04T22:16:33.000Z</time></trkpt>
        <trkpt lat="28.2222554" lon="105.53848"><ele>1476.89</ele><time>2026-07-04T22:16:47.000Z</time></trkpt>
        <trkpt lat="28.222347" lon="105.5384198"><ele>1476.76</ele><time>2026-07-04T22:16:59.000Z</time></trkpt>
        <trkpt lat="28.2224357" lon="105.5383613"><ele>1476.7</ele><time>2026-07-04T22:17:11.000Z</time></trkpt>
        <trkpt lat="28.2225277" lon="105.538306"><ele>1476.36</ele><time>2026-07-04T22:17:23.000Z</time></trkpt>
        <trkpt lat="28.2226153" lon="105.5382654"><ele>1475.06</ele><time>2026-07-04T22:17:33.000Z</time></trkpt>
        <trkpt lat="28.222702" lon="105.538232"><ele>1473.99</ele><time>2026-07-04T22:17:43.000Z</time></trkpt>
        <trkpt lat="28.2227672" lon="105.5381645"><ele>1473.13</ele><time>2026-07-04T22:17:53.000Z</time></trkpt>
        <trkpt lat="28.2228571" lon="105.5381257"><ele>1473.88</ele><time>2026-07-04T22:18:05.000Z</time></trkpt>
        <trkpt lat="28.2229448" lon="105.538096"><ele>1473.37</ele><time>2026-07-04T22:18:17.000Z</time></trkpt>
        <trkpt lat="28.2230323" lon="105.5380466"><ele>1472.53</ele><time>2026-07-04T22:18:33.000Z</time></trkpt>
        <trkpt lat="28.2231186" lon="105.5379989"><ele>1472.81</ele><time>2026-07-04T22:18:43.000Z</time></trkpt>
        <trkpt lat="28.2232066" lon="105.5379363"><ele>1472.21</ele><time>2026-07-04T22:18:55.000Z</time></trkpt>
        <trkpt lat="28.2232812" lon="105.5378603"><ele>1471.53</ele><time>2026-07-04T22:19:07.000Z</time></trkpt>
        <trkpt lat="28.2233474" lon="105.5377786"><ele>1470.97</ele><time>2026-07-04T22:19:19.000Z</time></trkpt>
        <trkpt lat="28.2234052" lon="105.5376864"><ele>1470.23</ele><time>2026-07-04T22:19:33.000Z</time></trkpt>
        <trkpt lat="28.2234625" lon="105.5375937"><ele>1469.71</ele><time>2026-07-04T22:19:43.000Z</time></trkpt>
        <trkpt lat="28.223543" lon="105.5375451"><ele>1468.89</ele><time>2026-07-04T22:19:57.000Z</time></trkpt>
        <trkpt lat="28.2236294" lon="105.5375089"><ele>1467.65</ele><time>2026-07-04T22:20:13.000Z</time></trkpt>
        <trkpt lat="28.2237199" lon="105.5374787"><ele>1466.5</ele><time>2026-07-04T22:20:27.000Z</time></trkpt>
        <trkpt lat="28.2238157" lon="105.5374592"><ele>1464.82</ele><time>2026-07-04T22:20:37.000Z</time></trkpt>
        <trkpt lat="28.2239131" lon="105.5374397"><ele>1462.61</ele><time>2026-07-04T22:20:49.000Z</time></trkpt>
        <trkpt lat="28.2240153" lon="105.5374169"><ele>1460.52</ele><time>2026-07-04T22:20:59.000Z</time></trkpt>
        <trkpt lat="28.2241128" lon="105.5373897"><ele>1459.66</ele><time>2026-07-04T22:21:11.000Z</time></trkpt>
        <trkpt lat="28.2242037" lon="105.537359"><ele>1458.18</ele><time>2026-07-04T22:21:23.000Z</time></trkpt>
        <trkpt lat="28.2242936" lon="105.5373386"><ele>1457.18</ele><time>2026-07-04T22:21:35.000Z</time></trkpt>
        <trkpt lat="28.2243868" lon="105.5373115"><ele>1455.94</ele><time>2026-07-04T22:21:47.000Z</time></trkpt>
        <trkpt lat="28.22448" lon="105.5372808"><ele>1453.38</ele><time>2026-07-04T22:21:59.000Z</time></trkpt>
        <trkpt lat="28.224579" lon="105.5372536"><ele>1451.21</ele><time>2026-07-04T22:22:11.000Z</time></trkpt>
        <trkpt lat="28.2246853" lon="105.5372232"><ele>1449.29</ele><time>2026-07-04T22:22:24.000Z</time></trkpt>
        <trkpt lat="28.2247826" lon="105.5371961"><ele>1447.28</ele><time>2026-07-04T22:22:34.000Z</time></trkpt>
        <trkpt lat="28.2248829" lon="105.5372158"><ele>1445.05</ele><time>2026-07-04T22:22:48.000Z</time></trkpt>
        <trkpt lat="28.2249536" lon="105.5372918"><ele>1442.59</ele><time>2026-07-04T22:23:02.000Z</time></trkpt>
        <trkpt lat="28.2249789" lon="105.5373235"><ele>1442.46</ele><time>2026-07-04T22:23:06.000Z</time></trkpt>
        <trkpt lat="28.2250398" lon="105.5373663"><ele>1442.33</ele><time>2026-07-04T22:23:20.000Z</time></trkpt>
        <trkpt lat="28.2251267" lon="105.5373969"><ele>1440.62</ele><time>2026-07-04T22:23:34.000Z</time></trkpt>
        <trkpt lat="28.2252024" lon="105.5374682"><ele>1438.9</ele><time>2026-07-04T22:23:54.000Z</time></trkpt>
        <trkpt lat="28.2252907" lon="105.5375166"><ele>1438.32</ele><time>2026-07-04T22:24:14.000Z</time></trkpt>
        <trkpt lat="28.2253818" lon="105.537549"><ele>1437.17</ele><time>2026-07-04T22:24:26.000Z</time></trkpt>
        <trkpt lat="28.2254829" lon="105.5375896"><ele>1434.73</ele><time>2026-07-04T22:24:40.000Z</time></trkpt>
        <trkpt lat="28.2255475" lon="105.5376029"><ele>1433.68</ele><time>2026-07-04T22:24:48.000Z</time></trkpt>
        <trkpt lat="28.2256273" lon="105.5376179"><ele>1432.29</ele><time>2026-07-04T22:25:06.000Z</time></trkpt>
        <trkpt lat="28.2257184" lon="105.5376532"><ele>1431.59</ele><time>2026-07-04T22:25:22.000Z</time></trkpt>
        <trkpt lat="28.2258162" lon="105.5376672"><ele>1430.82</ele><time>2026-07-04T22:25:30.000Z</time></trkpt>
        <trkpt lat="28.2259177" lon="105.5376882"><ele>1429.5</ele><time>2026-07-04T22:25:48.000Z</time></trkpt>
        <trkpt lat="28.2260049" lon="105.5376452"><ele>1426.83</ele><time>2026-07-04T22:26:04.000Z</time></trkpt>
        <trkpt lat="28.2260855" lon="105.5375868"><ele>1424.54</ele><time>2026-07-04T22:26:18.000Z</time></trkpt>
        <trkpt lat="28.2261717" lon="105.5375555"><ele>1422.45</ele><time>2026-07-04T22:26:30.000Z</time></trkpt>
        <trkpt lat="28.2262459" lon="105.537602"><ele>1421.15</ele><time>2026-07-04T22:26:44.000Z</time></trkpt>
        <trkpt lat="28.226261" lon="105.537618"><ele>1419.35</ele><time>2026-07-04T22:26:46.000Z</time></trkpt>
        <trkpt lat="28.226324" lon="105.5376677"><ele>1418.43</ele><time>2026-07-04T22:27:24.000Z</time></trkpt>
        <trkpt lat="28.2264124" lon="105.5376858"><ele>1417.42</ele><time>2026-07-04T22:27:34.000Z</time></trkpt>
        <trkpt lat="28.2264981" lon="105.5376349"><ele>1416.69</ele><time>2026-07-04T22:27:46.000Z</time></trkpt>
        <trkpt lat="28.2265482" lon="105.5375383"><ele>1413.94</ele><time>2026-07-04T22:27:56.000Z</time></trkpt>
        <trkpt lat="28.226591" lon="105.5374236"><ele>1411.92</ele><time>2026-07-04T22:28:08.000Z</time></trkpt>
        <trkpt lat="28.2266457" lon="105.5373237"><ele>1410.2</ele><time>2026-07-04T22:28:18.000Z</time></trkpt>
        <trkpt lat="28.2267337" lon="105.5372734"><ele>1409.59</ele><time>2026-07-04T22:28:28.000Z</time></trkpt>
        <trkpt lat="28.2268391" lon="105.5372513"><ele>1409.42</ele><time>2026-07-04T22:28:38.000Z</time></trkpt>
        <trkpt lat="28.22695" lon="105.5372557"><ele>1409.16</ele><time>2026-07-04T22:28:48.000Z</time></trkpt>
        <trkpt lat="28.2270363" lon="105.5373104"><ele>1408.4</ele><time>2026-07-04T22:28:56.000Z</time></trkpt>
        <trkpt lat="28.2271249" lon="105.5373695"><ele>1408.91</ele><time>2026-07-04T22:29:06.000Z</time></trkpt>
        <trkpt lat="28.2272122" lon="105.5373616"><ele>1409.25</ele><time>2026-07-04T22:29:14.000Z</time></trkpt>
        <trkpt lat="28.2273012" lon="105.5373035"><ele>1408.72</ele><time>2026-07-04T22:29:22.000Z</time></trkpt>
        <trkpt lat="28.2273822" lon="105.5372152"><ele>1407.64</ele><time>2026-07-04T22:29:31.000Z</time></trkpt>
        <trkpt lat="28.227424" lon="105.5370949"><ele>1406.96</ele><time>2026-07-04T22:29:41.000Z</time></trkpt>
        <trkpt lat="28.2274538" lon="105.5369666"><ele>1407.16</ele><time>2026-07-04T22:29:51.000Z</time></trkpt>
        <trkpt lat="28.2274124" lon="105.5368623"><ele>1407.73</ele><time>2026-07-04T22:30:01.000Z</time></trkpt>
        <trkpt lat="28.2273252" lon="105.5367906"><ele>1405.61</ele><time>2026-07-04T22:30:11.000Z</time></trkpt>
        <trkpt lat="28.2272634" lon="105.5367064"><ele>1404.11</ele><time>2026-07-04T22:30:31.000Z</time></trkpt>
        <trkpt lat="28.2273062" lon="105.5366529"><ele>1403.81</ele><time>2026-07-04T22:30:41.000Z</time></trkpt>
        <trkpt lat="28.2273832" lon="105.5365884"><ele>1402.88</ele><time>2026-07-04T22:30:53.000Z</time></trkpt>
        <trkpt lat="28.2274514" lon="105.5365097"><ele>1401.94</ele><time>2026-07-04T22:31:05.000Z</time></trkpt>
        <trkpt lat="28.2275343" lon="105.5364311"><ele>1400.26</ele><time>2026-07-04T22:31:21.000Z</time></trkpt>
        <trkpt lat="28.2276285" lon="105.5363847"><ele>1399.77</ele><time>2026-07-04T22:31:31.000Z</time></trkpt>
        <trkpt lat="28.2277325" lon="105.5363547"><ele>1397.73</ele><time>2026-07-04T22:31:43.000Z</time></trkpt>
        <trkpt lat="28.2278292" lon="105.5363426"><ele>1397.32</ele><time>2026-07-04T22:31:55.000Z</time></trkpt>
        <trkpt lat="28.227928" lon="105.5363301"><ele>1397.25</ele><time>2026-07-04T22:32:05.000Z</time></trkpt>
        <trkpt lat="28.2280264" lon="105.5363056"><ele>1397.12</ele><time>2026-07-04T22:32:17.000Z</time></trkpt>
        <trkpt lat="28.2281158" lon="105.5362678"><ele>1398</ele><time>2026-07-04T22:32:29.000Z</time></trkpt>
        <trkpt lat="28.2281806" lon="105.5361945"><ele>1399</ele><time>2026-07-04T22:32:41.000Z</time></trkpt>
        <trkpt lat="28.2282494" lon="105.5361228"><ele>1399.57</ele><time>2026-07-04T22:32:53.000Z</time></trkpt>
        <trkpt lat="28.2283208" lon="105.5360581"><ele>1401.36</ele><time>2026-07-04T22:33:05.000Z</time></trkpt>
        <trkpt lat="28.2283921" lon="105.5359937"><ele>1402.79</ele><time>2026-07-04T22:33:17.000Z</time></trkpt>
        <trkpt lat="28.2284687" lon="105.5359349"><ele>1402.69</ele><time>2026-07-04T22:33:27.000Z</time></trkpt>
        <trkpt lat="28.2285625" lon="105.5359053"><ele>1402.22</ele><time>2026-07-04T22:33:37.000Z</time></trkpt>
        <trkpt lat="28.2286658" lon="105.5358924"><ele>1400.98</ele><time>2026-07-04T22:33:47.000Z</time></trkpt>
        <trkpt lat="28.2287615" lon="105.5358721"><ele>1399.12</ele><time>2026-07-04T22:33:57.000Z</time></trkpt>
        <trkpt lat="28.2288545" lon="105.5358386"><ele>1396.95</ele><time>2026-07-04T22:34:11.000Z</time></trkpt>
        <trkpt lat="28.2289539" lon="105.535835"><ele>1393.21</ele><time>2026-07-04T22:34:23.000Z</time></trkpt>
        <trkpt lat="28.2290383" lon="105.5357967"><ele>1390.16</ele><time>2026-07-04T22:34:38.000Z</time></trkpt>
        <trkpt lat="28.229127" lon="105.5357964"><ele>1386.33</ele><time>2026-07-04T22:34:48.000Z</time></trkpt>
        <trkpt lat="28.2291443" lon="105.5358167"><ele>1384.26</ele><time>2026-07-04T22:34:54.000Z</time></trkpt>
        <trkpt lat="28.2292214" lon="105.5358115"><ele>1383.15</ele><time>2026-07-04T22:35:14.000Z</time></trkpt>
        <trkpt lat="28.2293174" lon="105.535819"><ele>1381.51</ele><time>2026-07-04T22:35:26.000Z</time></trkpt>
        <trkpt lat="28.2294198" lon="105.5358001"><ele>1380.47</ele><time>2026-07-04T22:35:38.000Z</time></trkpt>
        <trkpt lat="28.2295231" lon="105.5357997"><ele>1380.07</ele><time>2026-07-04T22:35:50.000Z</time></trkpt>
        <trkpt lat="28.2296262" lon="105.5357748"><ele>1379.26</ele><time>2026-07-04T22:36:00.000Z</time></trkpt>
        <trkpt lat="28.2297267" lon="105.5357707"><ele>1378.53</ele><time>2026-07-04T22:36:14.000Z</time></trkpt>
        <trkpt lat="28.2298245" lon="105.5357674"><ele>1378.37</ele><time>2026-07-04T22:36:24.000Z</time></trkpt>
        <trkpt lat="28.2299201" lon="105.5357644"><ele>1378.13</ele><time>2026-07-04T22:36:38.000Z</time></trkpt>
        <trkpt lat="28.230011" lon="105.5357619"><ele>1377.18</ele><time>2026-07-04T22:37:00.000Z</time></trkpt>
        <trkpt lat="28.2301082" lon="105.535744"><ele>1373.38</ele><time>2026-07-04T22:37:12.000Z</time></trkpt>
        <trkpt lat="28.23021" lon="105.5357537"><ele>1372.27</ele><time>2026-07-04T22:37:28.000Z</time></trkpt>
        <trkpt lat="28.2303111" lon="105.5357787"><ele>1371.36</ele><time>2026-07-04T22:37:40.000Z</time></trkpt>
        <trkpt lat="28.2304013" lon="105.5357624"><ele>1370.58</ele><time>2026-07-04T22:38:00.000Z</time></trkpt>
        <trkpt lat="28.2304661" lon="105.535696"><ele>1369.96</ele><time>2026-07-04T22:38:30.000Z</time></trkpt>
        <trkpt lat="28.2305428" lon="105.5356438"><ele>1369.22</ele><time>2026-07-04T22:38:44.000Z</time></trkpt>
        <trkpt lat="28.2306367" lon="105.5356459"><ele>1368.65</ele><time>2026-07-04T22:38:54.000Z</time></trkpt>
        <trkpt lat="28.2306911" lon="105.5356849"><ele>1367.92</ele><time>2026-07-04T22:39:04.000Z</time></trkpt>
        <trkpt lat="28.2307769" lon="105.5357119"><ele>1367.42</ele><time>2026-07-04T22:39:20.000Z</time></trkpt>
        <trkpt lat="28.2308709" lon="105.535736"><ele>1366.26</ele><time>2026-07-04T22:39:34.000Z</time></trkpt>
        <trkpt lat="28.2309779" lon="105.5357379"><ele>1363.29</ele><time>2026-07-04T22:39:49.000Z</time></trkpt>
        <trkpt lat="28.2310848" lon="105.5357302"><ele>1360.16</ele><time>2026-07-04T22:39:57.000Z</time></trkpt>
        <trkpt lat="28.2311478" lon="105.5356574"><ele>1358.94</ele><time>2026-07-04T22:40:11.000Z</time></trkpt>
        <trkpt lat="28.2311806" lon="105.5355537"><ele>1358.75</ele><time>2026-07-04T22:40:21.000Z</time></trkpt>
        <trkpt lat="28.2311609" lon="105.535441"><ele>1359.44</ele><time>2026-07-04T22:40:29.000Z</time></trkpt>
        <trkpt lat="28.2311182" lon="105.5353279"><ele>1359.95</ele><time>2026-07-04T22:40:39.000Z</time></trkpt>
        <trkpt lat="28.2311163" lon="105.5352106"><ele>1360.18</ele><time>2026-07-04T22:40:53.000Z</time></trkpt>
        <trkpt lat="28.2311746" lon="105.5351891"><ele>1360.61</ele><time>2026-07-04T22:41:07.000Z</time></trkpt>
        <trkpt lat="28.2311017" lon="105.5352262"><ele>1358.97</ele><time>2026-07-04T22:42:19.000Z</time></trkpt>
        <trkpt lat="28.2310701" lon="105.5351247"><ele>1355.12</ele><time>2026-07-04T22:42:35.000Z</time></trkpt>
        <trkpt lat="28.2310641" lon="105.5351042"><ele>1354.45</ele><time>2026-07-04T22:42:37.000Z</time></trkpt>
        <trkpt lat="28.2310934" lon="105.5350283"><ele>1354.24</ele><time>2026-07-04T22:42:57.000Z</time></trkpt>
        <trkpt lat="28.2311372" lon="105.5349369"><ele>1353.84</ele><time>2026-07-04T22:43:05.000Z</time></trkpt>
        <trkpt lat="28.2311039" lon="105.5348503"><ele>1354.22</ele><time>2026-07-04T22:43:27.000Z</time></trkpt>
        <trkpt lat="28.2310128" lon="105.5348073"><ele>1350.99</ele><time>2026-07-04T22:44:01.000Z</time></trkpt>
        <trkpt lat="28.231048" lon="105.5347483"><ele>1346.36</ele><time>2026-07-04T22:44:33.000Z</time></trkpt>
        <trkpt lat="28.2311383" lon="105.5346971"><ele>1338.3</ele><time>2026-07-04T22:44:43.000Z</time></trkpt>
        <trkpt lat="28.2312367" lon="105.5346474"><ele>1333.92</ele><time>2026-07-04T22:44:55.000Z</time></trkpt>
        <trkpt lat="28.231335" lon="105.5346055"><ele>1329.05</ele><time>2026-07-04T22:45:06.000Z</time></trkpt>
        <trkpt lat="28.231432" lon="105.5345596"><ele>1325.47</ele><time>2026-07-04T22:45:14.000Z</time></trkpt>
        <trkpt lat="28.2314729" lon="105.5345357"><ele>1324.29</ele><time>2026-07-04T22:45:20.000Z</time></trkpt>
        <trkpt lat="28.2315463" lon="105.5345221"><ele>1322.45</ele><time>2026-07-04T22:45:35.000Z</time></trkpt>
        <trkpt lat="28.2316383" lon="105.5345425"><ele>1322.76</ele><time>2026-07-04T22:45:45.000Z</time></trkpt>
        <trkpt lat="28.2317382" lon="105.5345946"><ele>1322.4</ele><time>2026-07-04T22:45:55.000Z</time></trkpt>
        <trkpt lat="28.2318309" lon="105.5346391"><ele>1321.71</ele><time>2026-07-04T22:46:03.000Z</time></trkpt>
        <trkpt lat="28.2318963" lon="105.534647"><ele>1321.19</ele><time>2026-07-04T22:46:11.000Z</time></trkpt>
        <trkpt lat="28.2319775" lon="105.5346291"><ele>1320.63</ele><time>2026-07-04T22:46:36.000Z</time></trkpt>
        <trkpt lat="28.2320661" lon="105.5346238"><ele>1320.62</ele><time>2026-07-04T22:46:44.000Z</time></trkpt>
        <trkpt lat="28.2321642" lon="105.5345933"><ele>1318.99</ele><time>2026-07-04T22:46:54.000Z</time></trkpt>
        <trkpt lat="28.2322459" lon="105.5345226"><ele>1319.09</ele><time>2026-07-04T22:47:06.000Z</time></trkpt>
        <trkpt lat="28.2323046" lon="105.5344222"><ele>1319.33</ele><time>2026-07-04T22:47:16.000Z</time></trkpt>
        <trkpt lat="28.2323746" lon="105.5343325"><ele>1319.63</ele><time>2026-07-04T22:47:26.000Z</time></trkpt>
        <trkpt lat="28.2324395" lon="105.5342285"><ele>1319.36</ele><time>2026-07-04T22:47:34.000Z</time></trkpt>
        <trkpt lat="28.2325102" lon="105.5341387"><ele>1320.1</ele><time>2026-07-04T22:47:48.000Z</time></trkpt>
        <trkpt lat="28.2326031" lon="105.5340758"><ele>1320.03</ele><time>2026-07-04T22:47:58.000Z</time></trkpt>
        <trkpt lat="28.2326952" lon="105.534019"><ele>1319.39</ele><time>2026-07-04T22:48:06.000Z</time></trkpt>
        <trkpt lat="28.232776" lon="105.5339651"><ele>1319.86</ele><time>2026-07-04T22:48:18.000Z</time></trkpt>
        <trkpt lat="28.2328626" lon="105.533912"><ele>1319.9</ele><time>2026-07-04T22:48:28.000Z</time></trkpt>
        <trkpt lat="28.2329607" lon="105.5338789"><ele>1319.42</ele><time>2026-07-04T22:48:38.000Z</time></trkpt>
        <trkpt lat="28.2330526" lon="105.5338555"><ele>1317.71</ele><time>2026-07-04T22:48:46.000Z</time></trkpt>
        <trkpt lat="28.2331448" lon="105.5338415"><ele>1315.8</ele><time>2026-07-04T22:48:54.000Z</time></trkpt>
        <trkpt lat="28.2332435" lon="105.5338301"><ele>1313.73</ele><time>2026-07-04T22:49:02.000Z</time></trkpt>
        <trkpt lat="28.2333415" lon="105.5338101"><ele>1312.42</ele><time>2026-07-04T22:49:10.000Z</time></trkpt>
        <trkpt lat="28.2334362" lon="105.5337782"><ele>1311.43</ele><time>2026-07-04T22:49:18.000Z</time></trkpt>
        <trkpt lat="28.2335251" lon="105.5337378"><ele>1310.52</ele><time>2026-07-04T22:49:26.000Z</time></trkpt>
        <trkpt lat="28.2336144" lon="105.5337081"><ele>1310.12</ele><time>2026-07-04T22:49:34.000Z</time></trkpt>
        <trkpt lat="28.2337081" lon="105.5336997"><ele>1309.19</ele><time>2026-07-04T22:49:42.000Z</time></trkpt>
        <trkpt lat="28.2338136" lon="105.5337036"><ele>1307.86</ele><time>2026-07-04T22:49:52.000Z</time></trkpt>
        <trkpt lat="28.2339221" lon="105.5337173"><ele>1306.45</ele><time>2026-07-04T22:50:04.000Z</time></trkpt>
        <trkpt lat="28.2340313" lon="105.5337079"><ele>1305.46</ele><time>2026-07-04T22:50:14.000Z</time></trkpt>
        <trkpt lat="28.2341256" lon="105.5336489"><ele>1303.03</ele><time>2026-07-04T22:50:24.000Z</time></trkpt>
        <trkpt lat="28.2342132" lon="105.5335777"><ele>1301.51</ele><time>2026-07-04T22:50:34.000Z</time></trkpt>
        <trkpt lat="28.2343129" lon="105.5335206"><ele>1300.7</ele><time>2026-07-04T22:50:44.000Z</time></trkpt>
        <trkpt lat="28.2344121" lon="105.5335025"><ele>1300.39</ele><time>2026-07-04T22:50:52.000Z</time></trkpt>
        <trkpt lat="28.2345147" lon="105.5335144"><ele>1300.53</ele><time>2026-07-04T22:51:04.000Z</time></trkpt>
        <trkpt lat="28.2345883" lon="105.5335815"><ele>1302</ele><time>2026-07-04T22:51:16.000Z</time></trkpt>
        <trkpt lat="28.2346776" lon="105.5336115"><ele>1307.64</ele><time>2026-07-04T22:51:33.000Z</time></trkpt>
        <trkpt lat="28.2347586" lon="105.5335673"><ele>1311.24</ele><time>2026-07-04T22:51:43.000Z</time></trkpt>
        <trkpt lat="28.2348364" lon="105.5335051"><ele>1313.93</ele><time>2026-07-04T22:51:53.000Z</time></trkpt>
        <trkpt lat="28.2348968" lon="105.5334188"><ele>1315.29</ele><time>2026-07-04T22:52:03.000Z</time></trkpt>
        <trkpt lat="28.2349583" lon="105.5333251"><ele>1316.26</ele><time>2026-07-04T22:52:15.000Z</time></trkpt>
        <trkpt lat="28.2350382" lon="105.5332585"><ele>1316.22</ele><time>2026-07-04T22:52:25.000Z</time></trkpt>
        <trkpt lat="28.2351314" lon="105.533244"><ele>1315.14</ele><time>2026-07-04T22:52:35.000Z</time></trkpt>
        <trkpt lat="28.2352231" lon="105.5332705"><ele>1314.88</ele><time>2026-07-04T22:52:47.000Z</time></trkpt>
        <trkpt lat="28.2353174" lon="105.5332901"><ele>1314.1</ele><time>2026-07-04T22:52:57.000Z</time></trkpt>
        <trkpt lat="28.2353414" lon="105.5332984"><ele>1314.52</ele><time>2026-07-04T22:52:59.000Z</time></trkpt>
        <trkpt lat="28.2354062" lon="105.5333207"><ele>1314.76</ele><time>2026-07-04T22:53:10.000Z</time></trkpt>
        <trkpt lat="28.2354949" lon="105.5333421"><ele>1313.03</ele><time>2026-07-04T22:53:22.000Z</time></trkpt>
        <trkpt lat="28.235565" lon="105.5333333"><ele>1311.18</ele><time>2026-07-04T22:53:34.000Z</time></trkpt>
        <trkpt lat="28.235565" lon="105.5333333"><ele>1311.18</ele><time>2026-07-04T22:54:02.000Z</time></trkpt>
      </trkseg>
  </trk>
</gpx>